JBU1408 LFPG-KJFK
Flight info
| Callsign | JBU1408 |
|---|---|
| Flight time | 7h 52m |
| Altitude | 30000 |
| Route | ELCOB UT300 SENLO DCT JSY DCT LIZAD DCT LESLU DCT MALOT/M077F310 NATE RIKAL/N0450F340 N572A TOPPS DCT ENE PARCH4 |
| Aircraft | A21N/M-SDE3FGHIRWY/LB1 |
Departure
| Time | 2026-05-05 14:28 |
|---|---|
| Airport | Charles de Gaulle International Airport (LFPG) |
Arrival
| Time | 2026-05-05 22:20 |
|---|---|
| Airport | John F. Kennedy International Airport (KJFK) |
| Time | Latitude | Longitude | Altitude | Speed | Heading |
|---|---|---|---|---|---|
| 2026-05-05 14:02 | 49.00671 | 2.55999 | 346 ft | 0 kts | 355° |
| 2026-05-05 14:03 | 49.00477 | 2.55959 | 344 ft | 0 kts | 173° |
| 2026-05-05 14:16 | 49.00489 | 2.55956 | 345 ft | 2 kts | 174° |
| 2026-05-05 14:16 | 49.00503 | 2.55954 | 345 ft | 2 kts | 174° |
| 2026-05-05 14:16 | 49.00518 | 2.55951 | 345 ft | 2 kts | 174° |
| 2026-05-05 14:16 | 49.00534 | 2.55948 | 345 ft | 2 kts | 174° |
| 2026-05-05 14:17 | 49.00549 | 2.55945 | 345 ft | 2 kts | 177° |
| 2026-05-05 14:17 | 49.00561 | 2.55948 | 345 ft | 2 kts | 203° |
| 2026-05-05 14:17 | 49.00574 | 2.55959 | 346 ft | 1 kts | 223° |
| 2026-05-05 14:17 | 49.00580 | 2.55969 | 346 ft | 0 kts | 236° |
| 2026-05-05 14:18 | 49.00583 | 2.55978 | 346 ft | 0 kts | 238° |
| 2026-05-05 14:21 | 49.00583 | 2.55977 | 346 ft | 0 kts | 238° |
| 2026-05-05 14:21 | 49.00576 | 2.55943 | 345 ft | 5 kts | 257° |
| 2026-05-05 14:21 | 49.00569 | 2.55862 | 342 ft | 10 kts | 265° |
| 2026-05-05 14:21 | 49.00561 | 2.55730 | 339 ft | 13 kts | 266° |
| 2026-05-05 14:22 | 49.00553 | 2.55571 | 336 ft | 16 kts | 266° |
| 2026-05-05 14:22 | 49.00531 | 2.55399 | 333 ft | 17 kts | 239° |
| 2026-05-05 14:22 | 49.00421 | 2.55341 | 329 ft | 18 kts | 162° |
| 2026-05-05 14:22 | 49.00300 | 2.55396 | 328 ft | 18 kts | 164° |
| 2026-05-05 14:23 | 49.00176 | 2.55447 | 326 ft | 18 kts | 165° |
| 2026-05-05 14:23 | 49.00055 | 2.55498 | 325 ft | 16 kts | 166° |
| 2026-05-05 14:23 | 48.99979 | 2.55433 | 322 ft | 11 kts | 261° |
| 2026-05-05 14:23 | 48.99976 | 2.55300 | 321 ft | 13 kts | 266° |
| 2026-05-05 14:24 | 48.99941 | 2.55199 | 321 ft | 10 kts | 192° |
| 2026-05-05 14:24 | 48.99874 | 2.55215 | 323 ft | 9 kts | 163° |
| 2026-05-05 14:24 | 48.99816 | 2.55243 | 324 ft | 8 kts | 163° |
| 2026-05-05 14:24 | 48.99764 | 2.55270 | 325 ft | 7 kts | 155° |
| 2026-05-05 14:25 | 48.99726 | 2.55319 | 326 ft | 6 kts | 128° |
| 2026-05-05 14:25 | 48.99704 | 2.55368 | 327 ft | 2 kts | 125° |
| 2026-05-05 14:25 | 48.99697 | 2.55382 | 327 ft | 0 kts | 124° |
| 2026-05-05 14:25 | 48.99695 | 2.55387 | 327 ft | 1 kts | 124° |
| 2026-05-05 14:26 | 48.99685 | 2.55410 | 328 ft | 3 kts | 125° |
| 2026-05-05 14:26 | 48.99664 | 2.55448 | 329 ft | 6 kts | 134° |
| 2026-05-05 14:26 | 48.99636 | 2.55488 | 330 ft | 5 kts | 138° |
| 2026-05-05 14:26 | 48.99606 | 2.55528 | 330 ft | 6 kts | 138° |
| 2026-05-05 14:27 | 48.99586 | 2.55591 | 330 ft | 7 kts | 90° |
| 2026-05-05 14:27 | 48.99589 | 2.55671 | 330 ft | 9 kts | 85° |
| 2026-05-05 14:27 | 48.99610 | 2.56023 | 333 ft | 66 kts | 85° |
| 2026-05-05 14:27 | 48.99662 | 2.57030 | 343 ft | 125 kts | 85° |
| 2026-05-05 14:28 | 48.99747 | 2.58622 | 326 ft | 174 kts | 85° |
| 2026-05-05 14:28 | 48.99829 | 2.60504 | 754 ft | 179 kts | 84° |
| 2026-05-05 14:28 | 48.99930 | 2.62403 | 1311 ft | 182 kts | 82° |
| 2026-05-05 14:28 | 49.00054 | 2.64296 | 1890 ft | 184 kts | 81° |
| 2026-05-05 14:29 | 49.00172 | 2.66248 | 2245 ft | 191 kts | 82° |
| 2026-05-05 14:29 | 49.00285 | 2.68314 | 2506 ft | 201 kts | 83° |
| 2026-05-05 14:29 | 49.00401 | 2.70507 | 2753 ft | 214 kts | 83° |
| 2026-05-05 14:29 | 49.00523 | 2.72834 | 2990 ft | 228 kts | 83° |
| 2026-05-05 14:30 | 49.00651 | 2.75327 | 3266 ft | 242 kts | 83° |
| 2026-05-05 14:30 | 49.00770 | 2.77959 | 3556 ft | 257 kts | 86° |
| 2026-05-05 14:30 | 49.00707 | 2.80704 | 4043 ft | 264 kts | 94° |
| 2026-05-05 14:30 | 49.00430 | 2.83453 | 4636 ft | 266 kts | 98° |
| 2026-05-05 14:31 | 49.00087 | 2.86191 | 5222 ft | 267 kts | 99° |
| 2026-05-05 14:31 | 48.99732 | 2.88963 | 5801 ft | 269 kts | 99° |
| 2026-05-05 14:31 | 48.99376 | 2.91754 | 6364 ft | 271 kts | 99° |
| 2026-05-05 14:31 | 48.99018 | 2.94584 | 6910 ft | 273 kts | 99° |
| 2026-05-05 14:32 | 48.98532 | 2.97361 | 7391 ft | 279 kts | 115° |
| 2026-05-05 14:32 | 48.97261 | 2.99593 | 7842 ft | 286 kts | 146° |
| 2026-05-05 14:32 | 48.95402 | 3.00644 | 8337 ft | 292 kts | 174° |
| 2026-05-05 14:32 | 48.93398 | 3.00262 | 8823 ft | 296 kts | 200° |
| 2026-05-05 14:33 | 48.91683 | 2.98579 | 9288 ft | 299 kts | 227° |
| 2026-05-05 14:33 | 48.90642 | 2.95866 | 9738 ft | 302 kts | 255° |
| 2026-05-05 14:33 | 48.90504 | 2.92721 | 10125 ft | 305 kts | 277° |
| 2026-05-05 14:33 | 48.90794 | 2.89480 | 10349 ft | 316 kts | 278° |
| 2026-05-05 14:34 | 48.91106 | 2.86092 | 10572 ft | 328 kts | 278° |
| 2026-05-05 14:34 | 48.91413 | 2.82621 | 10788 ft | 339 kts | 278° |
| 2026-05-05 14:34 | 48.91718 | 2.79016 | 10990 ft | 350 kts | 278° |
| 2026-05-05 14:34 | 48.92020 | 2.75348 | 11255 ft | 358 kts | 278° |
| 2026-05-05 14:35 | 48.92324 | 2.71577 | 11698 ft | 360 kts | 278° |
| 2026-05-05 14:35 | 48.92623 | 2.67819 | 12162 ft | 362 kts | 278° |
| 2026-05-05 14:35 | 48.92923 | 2.64009 | 12588 ft | 364 kts | 278° |
| 2026-05-05 14:35 | 48.93224 | 2.60179 | 12997 ft | 367 kts | 278° |
| 2026-05-05 14:36 | 48.93524 | 2.56332 | 13410 ft | 369 kts | 278° |
| 2026-05-05 14:36 | 48.93825 | 2.52461 | 13817 ft | 372 kts | 278° |
| 2026-05-05 14:36 | 48.94127 | 2.48570 | 14200 ft | 374 kts | 278° |
| 2026-05-05 14:36 | 48.94433 | 2.44633 | 14612 ft | 376 kts | 278° |
| 2026-05-05 14:37 | 48.94737 | 2.40677 | 15017 ft | 377 kts | 277° |
| 2026-05-05 14:37 | 48.95039 | 2.36722 | 15399 ft | 379 kts | 277° |
| 2026-05-05 14:37 | 48.95338 | 2.32768 | 15783 ft | 381 kts | 276° |
| 2026-05-05 14:37 | 48.95640 | 2.28777 | 16141 ft | 383 kts | 275° |
| 2026-05-05 14:38 | 48.95943 | 2.24731 | 16513 ft | 384 kts | 276° |
| 2026-05-05 14:38 | 48.96246 | 2.20695 | 16834 ft | 387 kts | 276° |
| 2026-05-05 14:38 | 48.96545 | 2.16666 | 17184 ft | 389 kts | 276° |
| 2026-05-05 14:38 | 48.96846 | 2.12582 | 17531 ft | 390 kts | 276° |
| 2026-05-05 14:39 | 48.97150 | 2.08469 | 17866 ft | 391 kts | 276° |
| 2026-05-05 14:39 | 48.97452 | 2.04341 | 18206 ft | 392 kts | 275° |
| 2026-05-05 14:39 | 48.97752 | 2.00241 | 18551 ft | 394 kts | 275° |
| 2026-05-05 14:39 | 48.98052 | 1.96102 | 18864 ft | 395 kts | 275° |
| 2026-05-05 14:40 | 48.98349 | 1.91975 | 19163 ft | 397 kts | 276° |
| 2026-05-05 14:40 | 48.98650 | 1.87788 | 19479 ft | 398 kts | 276° |
| 2026-05-05 14:40 | 48.98947 | 1.83628 | 19744 ft | 400 kts | 276° |
| 2026-05-05 14:40 | 48.99246 | 1.79420 | 20008 ft | 402 kts | 276° |
| 2026-05-05 14:41 | 48.99547 | 1.75175 | 20285 ft | 404 kts | 276° |
| 2026-05-05 14:41 | 48.99847 | 1.70913 | 20558 ft | 406 kts | 276° |
| 2026-05-05 14:41 | 49.00143 | 1.66695 | 20827 ft | 408 kts | 276° |
| 2026-05-05 14:41 | 49.00445 | 1.62365 | 21084 ft | 410 kts | 276° |
| 2026-05-05 14:42 | 49.00745 | 1.58041 | 21339 ft | 412 kts | 276° |
| 2026-05-05 14:42 | 49.01042 | 1.53731 | 21590 ft | 414 kts | 276° |
| 2026-05-05 14:42 | 49.01342 | 1.49358 | 21843 ft | 416 kts | 276° |
| 2026-05-05 14:42 | 49.01640 | 1.44987 | 22102 ft | 417 kts | 276° |
| 2026-05-05 14:43 | 49.01937 | 1.40597 | 22355 ft | 419 kts | 276° |
| 2026-05-05 14:43 | 49.02231 | 1.36235 | 22588 ft | 421 kts | 276° |
| 2026-05-05 14:43 | 49.02528 | 1.31801 | 22813 ft | 423 kts | 275° |
| 2026-05-05 14:43 | 49.02828 | 1.27304 | 23044 ft | 424 kts | 275° |
| 2026-05-05 14:44 | 49.03115 | 1.22889 | 23266 ft | 426 kts | 274° |
| 2026-05-05 14:44 | 49.03299 | 1.18403 | 23467 ft | 428 kts | 272° |
| 2026-05-05 14:44 | 49.03442 | 1.13870 | 23676 ft | 429 kts | 272° |
| 2026-05-05 14:44 | 49.03580 | 1.09299 | 23869 ft | 432 kts | 272° |
| 2026-05-05 14:45 | 49.03715 | 1.04785 | 24085 ft | 433 kts | 272° |
| 2026-05-05 14:45 | 49.03851 | 1.00197 | 24290 ft | 434 kts | 272° |
| 2026-05-05 14:45 | 49.03986 | 0.95582 | 24522 ft | 435 kts | 272° |
| 2026-05-05 14:45 | 49.04118 | 0.91032 | 24742 ft | 436 kts | 272° |
| 2026-05-05 14:46 | 49.04253 | 0.86368 | 24950 ft | 437 kts | 272° |
| 2026-05-05 14:46 | 49.04384 | 0.81813 | 25148 ft | 438 kts | 272° |
| 2026-05-05 14:46 | 49.04514 | 0.77160 | 25391 ft | 438 kts | 272° |
| 2026-05-05 14:46 | 49.04641 | 0.72547 | 25636 ft | 438 kts | 272° |
| 2026-05-05 14:47 | 49.04768 | 0.67897 | 25879 ft | 438 kts | 272° |
| 2026-05-05 14:47 | 49.04891 | 0.63320 | 26146 ft | 437 kts | 272° |
| 2026-05-05 14:47 | 49.05013 | 0.58676 | 26398 ft | 437 kts | 272° |
| 2026-05-05 14:47 | 49.05133 | 0.54101 | 26639 ft | 436 kts | 272° |
| 2026-05-05 14:48 | 49.05252 | 0.49511 | 26889 ft | 435 kts | 272° |
| 2026-05-05 14:48 | 49.05368 | 0.44945 | 27145 ft | 434 kts | 272° |
| 2026-05-05 14:48 | 49.05482 | 0.40365 | 27398 ft | 433 kts | 272° |
| 2026-05-05 14:48 | 49.05595 | 0.35769 | 27635 ft | 433 kts | 272° |
| 2026-05-05 14:49 | 49.05706 | 0.31214 | 27860 ft | 433 kts | 271° |
| 2026-05-05 14:49 | 49.05815 | 0.26602 | 28082 ft | 432 kts | 271° |
| 2026-05-05 14:49 | 49.05922 | 0.22031 | 28289 ft | 432 kts | 271° |
| 2026-05-05 14:49 | 49.06026 | 0.17469 | 28459 ft | 433 kts | 271° |
| 2026-05-05 14:50 | 49.06129 | 0.12919 | 28612 ft | 434 kts | 271° |
| 2026-05-05 14:50 | 49.06231 | 0.08362 | 28776 ft | 435 kts | 271° |
| 2026-05-05 14:50 | 49.06332 | 0.03734 | 28955 ft | 436 kts | 271° |
| 2026-05-05 14:50 | 49.06432 | -0.00884 | 29129 ft | 436 kts | 271° |
| 2026-05-05 14:51 | 49.06529 | -0.05476 | 29289 ft | 437 kts | 271° |
| 2026-05-05 14:51 | 49.06625 | -0.10103 | 29448 ft | 438 kts | 271° |
| 2026-05-05 14:51 | 49.06718 | -0.14693 | 29624 ft | 438 kts | 271° |
| 2026-05-05 14:51 | 49.06811 | -0.19352 | 29793 ft | 438 kts | 271° |
| 2026-05-05 14:52 | 49.06989 | -0.28646 | 29893 ft | 440 kts | 271° |
| 2026-05-05 14:52 | 49.07159 | -0.37901 | 29897 ft | 441 kts | 271° |
| 2026-05-05 14:53 | 49.07323 | -0.47199 | 29897 ft | 442 kts | 271° |
| 2026-05-05 14:53 | 49.07482 | -0.56593 | 29897 ft | 443 kts | 271° |
| 2026-05-05 14:54 | 49.07633 | -0.65906 | 29904 ft | 443 kts | 270° |
| 2026-05-05 14:54 | 49.07777 | -0.75323 | 29896 ft | 445 kts | 270° |
| 2026-05-05 14:55 | 49.07913 | -0.84738 | 29901 ft | 444 kts | 270° |
| 2026-05-05 14:55 | 49.08045 | -0.94069 | 29905 ft | 444 kts | 270° |
| 2026-05-05 14:56 | 49.08167 | -1.03472 | 29917 ft | 444 kts | 270° |
| 2026-05-05 14:56 | 49.08334 | -1.12827 | 29918 ft | 446 kts | 273° |
| 2026-05-05 14:57 | 49.09092 | -1.22198 | 29921 ft | 447 kts | 280° |
| 2026-05-05 14:57 | 49.10489 | -1.31402 | 29925 ft | 448 kts | 283° |
| 2026-05-05 14:58 | 49.11988 | -1.40555 | 29926 ft | 448 kts | 284° |
| 2026-05-05 14:58 | 49.13476 | -1.49762 | 29928 ft | 448 kts | 284° |
| 2026-05-05 14:59 | 49.14952 | -1.58990 | 29933 ft | 447 kts | 284° |
| 2026-05-05 14:59 | 49.16410 | -1.68162 | 29932 ft | 447 kts | 283° |
| 2026-05-05 15:00 | 49.17627 | -1.75859 | 29935 ft | 448 kts | 283° |
| 2026-05-05 15:00 | 49.19319 | -1.86641 | 29941 ft | 448 kts | 283° |
| 2026-05-05 15:01 | 49.20759 | -1.95867 | 29943 ft | 448 kts | 283° |
| 2026-05-05 15:01 | 49.22190 | -2.05089 | 29944 ft | 448 kts | 283° |
| 2026-05-05 15:02 | 49.23745 | -2.14256 | 29944 ft | 448 kts | 284° |
| 2026-05-05 15:02 | 49.25346 | -2.23485 | 29955 ft | 448 kts | 284° |
| 2026-05-05 15:03 | 49.26913 | -2.32622 | 29963 ft | 447 kts | 284° |
| 2026-05-05 15:03 | 49.28479 | -2.41845 | 29969 ft | 447 kts | 284° |
| 2026-05-05 15:04 | 49.30030 | -2.51037 | 29967 ft | 447 kts | 284° |
| 2026-05-05 15:04 | 49.31563 | -2.60183 | 29972 ft | 447 kts | 284° |
| 2026-05-05 15:05 | 49.33861 | -2.73961 | 29976 ft | 446 kts | 283° |
| 2026-05-05 15:06 | 49.35388 | -2.83185 | 29974 ft | 446 kts | 283° |
| 2026-05-05 15:06 | 49.36901 | -2.92383 | 29982 ft | 446 kts | 283° |
| 2026-05-05 15:07 | 49.38404 | -3.01566 | 29981 ft | 447 kts | 283° |
| 2026-05-05 15:07 | 49.39902 | -3.10756 | 29979 ft | 446 kts | 283° |
| 2026-05-05 15:08 | 49.41397 | -3.19998 | 29980 ft | 448 kts | 283° |
| 2026-05-05 15:08 | 49.42886 | -3.29244 | 29982 ft | 448 kts | 283° |
| 2026-05-05 15:09 | 49.44374 | -3.38526 | 29980 ft | 448 kts | 283° |
| 2026-05-05 15:09 | 49.45850 | -3.47780 | 29980 ft | 447 kts | 283° |
| 2026-05-05 15:10 | 49.47318 | -3.57055 | 29979 ft | 448 kts | 283° |
| 2026-05-05 15:10 | 49.48779 | -3.66336 | 29975 ft | 448 kts | 282° |
| 2026-05-05 15:11 | 49.50225 | -3.75579 | 29976 ft | 448 kts | 282° |
| 2026-05-05 15:11 | 49.51669 | -3.84852 | 29975 ft | 448 kts | 282° |
| 2026-05-05 15:12 | 49.53110 | -3.94165 | 29976 ft | 447 kts | 282° |
| 2026-05-05 15:12 | 49.54531 | -4.03383 | 29977 ft | 446 kts | 282° |
| 2026-05-05 15:13 | 49.55950 | -4.12638 | 29978 ft | 446 kts | 282° |
| 2026-05-05 15:13 | 49.57358 | -4.21902 | 29978 ft | 445 kts | 281° |
| 2026-05-05 15:14 | 49.59054 | -4.31067 | 29979 ft | 445 kts | 289° |
| 2026-05-05 15:14 | 49.61712 | -4.39617 | 29979 ft | 448 kts | 300° |
| 2026-05-05 15:15 | 49.65004 | -4.47709 | 29984 ft | 447 kts | 301° |
| 2026-05-05 15:15 | 49.68342 | -4.55797 | 29985 ft | 446 kts | 301° |
| 2026-05-05 15:16 | 49.71638 | -4.63847 | 29991 ft | 445 kts | 301° |
| 2026-05-05 15:16 | 49.74903 | -4.71871 | 29986 ft | 443 kts | 300° |
| 2026-05-05 15:17 | 49.78170 | -4.79930 | 29992 ft | 442 kts | 300° |
| 2026-05-05 15:17 | 49.81398 | -4.87920 | 29990 ft | 441 kts | 300° |
| 2026-05-05 15:18 | 49.84633 | -4.95954 | 29996 ft | 438 kts | 299° |
| 2026-05-05 15:18 | 49.87831 | -5.03923 | 30000 ft | 438 kts | 299° |
| 2026-05-05 15:19 | 49.91021 | -5.11898 | 30006 ft | 437 kts | 300° |
| 2026-05-05 15:19 | 49.94213 | -5.19902 | 30012 ft | 437 kts | 300° |
| 2026-05-05 15:20 | 49.97404 | -5.27926 | 30014 ft | 437 kts | 300° |
| 2026-05-05 15:20 | 50.00580 | -5.35934 | 30019 ft | 437 kts | 300° |
| 2026-05-05 15:21 | 50.03749 | -5.43950 | 30023 ft | 437 kts | 300° |
| 2026-05-05 15:21 | 50.06916 | -5.51981 | 30027 ft | 436 kts | 300° |
| 2026-05-05 15:22 | 50.10067 | -5.60001 | 30027 ft | 437 kts | 300° |
| 2026-05-05 15:22 | 50.13222 | -5.68056 | 30036 ft | 437 kts | 299° |
| 2026-05-05 15:23 | 50.16389 | -5.76168 | 30045 ft | 437 kts | 299° |
| 2026-05-05 15:23 | 50.19528 | -5.84227 | 30035 ft | 438 kts | 300° |
| 2026-05-05 15:24 | 50.22678 | -5.92347 | 30037 ft | 439 kts | 300° |
| 2026-05-05 15:24 | 50.25806 | -6.00432 | 30038 ft | 439 kts | 300° |
| 2026-05-05 15:25 | 50.28962 | -6.08608 | 30029 ft | 440 kts | 300° |
| 2026-05-05 15:25 | 50.32087 | -6.16735 | 30033 ft | 440 kts | 300° |
| 2026-05-05 15:26 | 50.35251 | -6.25029 | 30031 ft | 445 kts | 302° |
| 2026-05-05 15:26 | 50.38371 | -6.33230 | 30043 ft | 438 kts | 303° |
| 2026-05-05 15:27 | 50.41498 | -6.41404 | 30035 ft | 434 kts | 303° |
| 2026-05-05 15:27 | 50.44558 | -6.49448 | 30041 ft | 432 kts | 303° |
| 2026-05-05 15:28 | 50.47633 | -6.57559 | 30041 ft | 431 kts | 303° |
| 2026-05-05 15:28 | 50.50673 | -6.65612 | 30047 ft | 431 kts | 302° |
| 2026-05-05 15:29 | 50.53695 | -6.73648 | 30054 ft | 430 kts | 302° |
| 2026-05-05 15:29 | 50.56730 | -6.81741 | 30046 ft | 429 kts | 302° |
| 2026-05-05 15:30 | 50.59724 | -6.89750 | 30048 ft | 429 kts | 302° |
| 2026-05-05 15:30 | 50.62734 | -6.97830 | 30054 ft | 428 kts | 302° |
| 2026-05-05 15:31 | 50.65728 | -7.05887 | 30061 ft | 428 kts | 302° |
| 2026-05-05 15:31 | 50.68724 | -7.13975 | 30066 ft | 427 kts | 302° |
| 2026-05-05 15:32 | 50.71694 | -7.22019 | 30069 ft | 426 kts | 302° |
| 2026-05-05 15:32 | 50.74652 | -7.30057 | 30072 ft | 426 kts | 302° |
| 2026-05-05 15:33 | 50.77621 | -7.38152 | 30077 ft | 426 kts | 302° |
| 2026-05-05 15:33 | 50.80576 | -7.46234 | 30077 ft | 425 kts | 302° |
| 2026-05-05 15:34 | 50.83513 | -7.54289 | 30083 ft | 425 kts | 301° |
| 2026-05-05 15:34 | 50.86455 | -7.62386 | 30086 ft | 425 kts | 301° |
| 2026-05-05 15:35 | 50.89384 | -7.70472 | 30086 ft | 426 kts | 300° |
| 2026-05-05 15:35 | 50.92305 | -7.78560 | 30089 ft | 426 kts | 300° |
| 2026-05-05 15:36 | 50.95233 | -7.86698 | 30086 ft | 425 kts | 300° |
| 2026-05-05 15:36 | 50.98154 | -7.94838 | 30086 ft | 425 kts | 300° |
| 2026-05-05 15:37 | 51.01022 | -8.02975 | 30082 ft | 426 kts | 298° |
| 2026-05-05 15:37 | 51.03749 | -8.11309 | 30076 ft | 427 kts | 298° |
| 2026-05-05 15:38 | 51.06459 | -8.19648 | 30084 ft | 426 kts | 298° |
| 2026-05-05 15:38 | 51.09161 | -8.27957 | 30080 ft | 425 kts | 298° |
| 2026-05-05 15:39 | 51.11872 | -8.36311 | 30083 ft | 425 kts | 298° |
| 2026-05-05 15:39 | 51.14575 | -8.44653 | 30084 ft | 425 kts | 298° |
| 2026-05-05 15:40 | 51.17260 | -8.52965 | 30087 ft | 426 kts | 298° |
| 2026-05-05 15:40 | 51.19962 | -8.61358 | 30086 ft | 426 kts | 298° |
| 2026-05-05 15:41 | 51.22652 | -8.69748 | 30087 ft | 426 kts | 297° |
| 2026-05-05 15:41 | 51.25330 | -8.78125 | 30088 ft | 426 kts | 297° |
| 2026-05-05 15:42 | 51.27993 | -8.86484 | 30089 ft | 426 kts | 297° |
| 2026-05-05 15:42 | 51.30659 | -8.94879 | 30090 ft | 425 kts | 297° |
| 2026-05-05 15:43 | 51.33333 | -9.03330 | 30092 ft | 426 kts | 297° |
| 2026-05-05 15:43 | 51.35984 | -9.11736 | 30095 ft | 426 kts | 297° |
| 2026-05-05 15:44 | 51.38635 | -9.20169 | 30097 ft | 426 kts | 297° |
| 2026-05-05 15:44 | 51.41276 | -9.28603 | 30097 ft | 426 kts | 297° |
| 2026-05-05 15:45 | 51.43917 | -9.37063 | 30096 ft | 426 kts | 297° |
| 2026-05-05 15:45 | 51.46540 | -9.45497 | 30096 ft | 426 kts | 297° |
| 2026-05-05 15:46 | 51.49175 | -9.53999 | 30098 ft | 425 kts | 297° |
| 2026-05-05 15:46 | 51.51793 | -9.62474 | 30096 ft | 425 kts | 297° |
| 2026-05-05 15:47 | 51.54386 | -9.70902 | 30095 ft | 425 kts | 297° |
| 2026-05-05 15:47 | 51.56989 | -9.79386 | 30094 ft | 425 kts | 297° |
| 2026-05-05 15:48 | 51.59584 | -9.87876 | 30096 ft | 424 kts | 297° |
| 2026-05-05 15:48 | 51.62177 | -9.96388 | 30100 ft | 424 kts | 297° |
| 2026-05-05 15:49 | 51.64764 | -10.04913 | 30102 ft | 424 kts | 297° |
| 2026-05-05 15:49 | 51.67336 | -10.13416 | 30103 ft | 424 kts | 297° |
| 2026-05-05 15:50 | 51.69886 | -10.21878 | 30106 ft | 424 kts | 297° |
| 2026-05-05 15:50 | 51.72449 | -10.30413 | 30107 ft | 424 kts | 297° |
| 2026-05-05 15:51 | 51.75006 | -10.38955 | 30109 ft | 424 kts | 296° |
| 2026-05-05 15:51 | 51.77551 | -10.47489 | 30109 ft | 423 kts | 296° |
| 2026-05-05 15:52 | 51.80086 | -10.56018 | 30112 ft | 422 kts | 296° |
| 2026-05-05 15:52 | 51.82616 | -10.64569 | 30114 ft | 422 kts | 296° |
| 2026-05-05 15:53 | 51.85133 | -10.73099 | 30116 ft | 422 kts | 296° |
| 2026-05-05 15:53 | 51.87626 | -10.81578 | 30119 ft | 422 kts | 296° |
| 2026-05-05 15:54 | 51.90132 | -10.90132 | 30121 ft | 423 kts | 295° |
| 2026-05-05 15:54 | 51.92643 | -10.98732 | 30122 ft | 424 kts | 295° |
| 2026-05-05 15:55 | 51.95140 | -11.07319 | 30123 ft | 422 kts | 295° |
| 2026-05-05 15:55 | 51.97627 | -11.15904 | 30125 ft | 421 kts | 295° |
| 2026-05-05 15:56 | 52.00095 | -11.24453 | 30128 ft | 421 kts | 295° |
| 2026-05-05 15:56 | 52.02570 | -11.33057 | 30128 ft | 421 kts | 295° |
| 2026-05-05 15:57 | 52.05015 | -11.41584 | 30130 ft | 421 kts | 295° |
| 2026-05-05 15:57 | 52.07474 | -11.50195 | 30134 ft | 421 kts | 295° |
| 2026-05-05 15:58 | 52.09936 | -11.58847 | 30172 ft | 421 kts | 295° |
| 2026-05-05 15:58 | 52.12379 | -11.67465 | 30282 ft | 421 kts | 295° |
| 2026-05-05 15:59 | 52.14811 | -11.76072 | 30397 ft | 421 kts | 295° |
| 2026-05-05 15:59 | 52.17231 | -11.84669 | 30510 ft | 420 kts | 295° |
| 2026-05-05 16:00 | 52.19651 | -11.93302 | 30616 ft | 420 kts | 295° |
| 2026-05-05 16:00 | 52.22068 | -12.01957 | 30728 ft | 420 kts | 295° |
| 2026-05-05 16:01 | 52.24465 | -12.10568 | 30836 ft | 419 kts | 295° |
| 2026-05-05 16:01 | 52.26852 | -12.19170 | 30953 ft | 418 kts | 295° |
| 2026-05-05 16:02 | 52.29242 | -12.27817 | 31066 ft | 418 kts | 294° |
| 2026-05-05 16:02 | 52.31616 | -12.36441 | 31133 ft | 418 kts | 294° |
| 2026-05-05 16:03 | 52.33984 | -12.45078 | 31138 ft | 418 kts | 294° |
| 2026-05-05 16:03 | 52.36352 | -12.53744 | 31143 ft | 419 kts | 294° |
| 2026-05-05 16:04 | 52.38708 | -12.62403 | 31145 ft | 418 kts | 294° |
| 2026-05-05 16:04 | 52.41056 | -12.71064 | 31145 ft | 418 kts | 294° |
| 2026-05-05 16:05 | 52.43405 | -12.79757 | 31146 ft | 419 kts | 294° |
| 2026-05-05 16:05 | 52.45742 | -12.88439 | 31152 ft | 419 kts | 293° |
| 2026-05-05 16:06 | 52.48091 | -12.97195 | 31152 ft | 419 kts | 293° |
| 2026-05-05 16:06 | 52.50425 | -13.05935 | 31159 ft | 419 kts | 293° |
| 2026-05-05 16:07 | 52.52742 | -13.14645 | 31166 ft | 419 kts | 293° |
| 2026-05-05 16:07 | 52.55049 | -13.23349 | 31168 ft | 419 kts | 293° |
| 2026-05-05 16:08 | 52.57368 | -13.32129 | 31168 ft | 418 kts | 293° |
| 2026-05-05 16:08 | 52.59657 | -13.40835 | 31164 ft | 418 kts | 293° |
| 2026-05-05 16:09 | 52.61949 | -13.49578 | 31173 ft | 418 kts | 293° |
| 2026-05-05 16:09 | 52.64244 | -13.58371 | 31168 ft | 418 kts | 293° |
| 2026-05-05 16:10 | 52.66522 | -13.67137 | 31177 ft | 418 kts | 292° |
| 2026-05-05 16:10 | 52.68787 | -13.75884 | 31169 ft | 419 kts | 292° |
| 2026-05-05 16:11 | 52.71066 | -13.84717 | 31173 ft | 418 kts | 292° |
| 2026-05-05 16:12 | 52.75573 | -14.02279 | 31172 ft | 418 kts | 292° |
| 2026-05-05 16:13 | 52.81177 | -14.24328 | 31172 ft | 418 kts | 292° |
| 2026-05-05 16:13 | 52.83412 | -14.33183 | 31172 ft | 418 kts | 292° |
| 2026-05-05 16:14 | 52.87851 | -14.50868 | 31176 ft | 418 kts | 291° |
| 2026-05-05 16:15 | 52.92265 | -14.68593 | 31177 ft | 418 kts | 291° |
| 2026-05-05 16:16 | 52.96650 | -14.86347 | 31184 ft | 418 kts | 290° |
| 2026-05-05 16:17 | 52.99924 | -14.99702 | 31184 ft | 418 kts | 290° |
| 2026-05-05 16:18 | 53.02998 | -15.13236 | 31189 ft | 419 kts | 289° |
| 2026-05-05 16:19 | 53.06015 | -15.26782 | 31183 ft | 418 kts | 289° |
| 2026-05-05 16:19 | 53.09024 | -15.40329 | 31189 ft | 419 kts | 289° |
| 2026-05-05 16:20 | 53.13027 | -15.58474 | 31185 ft | 420 kts | 289° |
| 2026-05-05 16:22 | 53.18002 | -15.81241 | 31182 ft | 421 kts | 288° |
| 2026-05-05 16:23 | 53.21963 | -15.99545 | 31187 ft | 422 kts | 288° |
| 2026-05-05 16:23 | 53.24926 | -16.13345 | 31189 ft | 422 kts | 288° |
| 2026-05-05 16:24 | 53.26880 | -16.22498 | 31184 ft | 422 kts | 288° |
| 2026-05-05 16:25 | 53.29813 | -16.36320 | 31194 ft | 423 kts | 288° |
| 2026-05-05 16:25 | 53.32745 | -16.50227 | 31194 ft | 423 kts | 288° |
| 2026-05-05 16:26 | 53.36609 | -16.68705 | 31195 ft | 424 kts | 287° |
| 2026-05-05 16:27 | 53.38541 | -16.78011 | 31201 ft | 424 kts | 287° |
| 2026-05-05 16:27 | 53.40465 | -16.87313 | 31202 ft | 424 kts | 287° |
| 2026-05-05 16:28 | 53.42376 | -16.96601 | 31204 ft | 424 kts | 287° |
| 2026-05-05 16:28 | 53.44286 | -17.05921 | 31202 ft | 425 kts | 287° |
| 2026-05-05 16:29 | 53.46202 | -17.15323 | 31202 ft | 426 kts | 287° |
| 2026-05-05 16:29 | 53.48092 | -17.24650 | 31207 ft | 426 kts | 287° |
| 2026-05-05 16:30 | 53.49989 | -17.34045 | 31206 ft | 425 kts | 287° |
| 2026-05-05 16:30 | 53.51867 | -17.43389 | 31210 ft | 425 kts | 288° |
| 2026-05-05 16:31 | 53.53740 | -17.52755 | 31201 ft | 425 kts | 288° |
| 2026-05-05 16:31 | 53.55612 | -17.62161 | 31213 ft | 425 kts | 288° |
| 2026-05-05 16:32 | 53.57470 | -17.71543 | 31206 ft | 425 kts | 287° |
| 2026-05-05 16:32 | 53.59331 | -17.80981 | 31207 ft | 426 kts | 287° |
| 2026-05-05 16:33 | 53.61180 | -17.90415 | 31208 ft | 427 kts | 287° |
| 2026-05-05 16:33 | 53.63032 | -17.99896 | 31202 ft | 427 kts | 287° |
| 2026-05-05 16:34 | 53.64869 | -18.09353 | 31208 ft | 428 kts | 287° |
| 2026-05-05 16:34 | 53.66702 | -18.18838 | 31211 ft | 428 kts | 288° |
| 2026-05-05 16:35 | 53.68534 | -18.28367 | 31215 ft | 428 kts | 288° |
| 2026-05-05 16:35 | 53.70356 | -18.37888 | 31213 ft | 428 kts | 288° |
| 2026-05-05 16:36 | 53.72163 | -18.47379 | 31212 ft | 429 kts | 288° |
| 2026-05-05 16:36 | 53.73986 | -18.56999 | 31203 ft | 430 kts | 288° |
| 2026-05-05 16:37 | 53.75785 | -18.66541 | 31201 ft | 430 kts | 287° |
| 2026-05-05 16:37 | 53.77581 | -18.76128 | 31205 ft | 430 kts | 288° |
| 2026-05-05 16:38 | 53.79383 | -18.85784 | 31215 ft | 431 kts | 288° |
| 2026-05-05 16:38 | 53.81173 | -18.95424 | 31214 ft | 432 kts | 288° |
| 2026-05-05 16:39 | 53.82957 | -19.05081 | 31213 ft | 432 kts | 288° |
| 2026-05-05 16:39 | 53.84741 | -19.14793 | 31226 ft | 432 kts | 288° |
| 2026-05-05 16:40 | 53.86507 | -19.24462 | 31214 ft | 432 kts | 288° |
| 2026-05-05 16:40 | 53.88276 | -19.34197 | 31219 ft | 433 kts | 288° |
| 2026-05-05 16:41 | 53.90026 | -19.43876 | 31212 ft | 433 kts | 288° |
| 2026-05-05 16:41 | 53.91777 | -19.53613 | 31220 ft | 434 kts | 288° |
| 2026-05-05 16:42 | 53.93527 | -19.63381 | 31216 ft | 434 kts | 289° |
| 2026-05-05 16:42 | 53.95264 | -19.73150 | 31210 ft | 435 kts | 288° |
| 2026-05-05 16:43 | 53.96990 | -19.82903 | 31219 ft | 435 kts | 288° |
| 2026-05-05 16:43 | 53.98703 | -19.92756 | 31210 ft | 437 kts | 287° |
| 2026-05-05 16:44 | 53.99945 | -20.02877 | 31215 ft | 439 kts | 280° |
| 2026-05-05 16:44 | 54.00537 | -20.13176 | 31222 ft | 440 kts | 276° |
| 2026-05-05 16:45 | 54.00943 | -20.23472 | 31207 ft | 440 kts | 276° |
| 2026-05-05 16:45 | 54.01342 | -20.33804 | 31217 ft | 440 kts | 276° |
| 2026-05-05 16:46 | 54.01734 | -20.44128 | 31215 ft | 440 kts | 276° |
| 2026-05-05 16:46 | 54.02121 | -20.54506 | 31216 ft | 439 kts | 276° |
| 2026-05-05 16:47 | 54.02497 | -20.64780 | 31217 ft | 439 kts | 276° |
| 2026-05-05 16:47 | 54.02867 | -20.75135 | 31213 ft | 439 kts | 276° |
| 2026-05-05 16:48 | 54.03227 | -20.85456 | 31218 ft | 438 kts | 276° |
| 2026-05-05 16:48 | 54.03579 | -20.95741 | 31221 ft | 439 kts | 276° |
| 2026-05-05 16:49 | 54.03921 | -21.06070 | 31216 ft | 440 kts | 276° |
| 2026-05-05 16:49 | 54.04252 | -21.16380 | 31223 ft | 440 kts | 276° |
| 2026-05-05 16:50 | 54.04577 | -21.26753 | 31214 ft | 440 kts | 276° |
| 2026-05-05 16:50 | 54.04894 | -21.37086 | 31227 ft | 439 kts | 276° |
| 2026-05-05 16:51 | 54.05199 | -21.47378 | 31227 ft | 439 kts | 277° |
| 2026-05-05 16:51 | 54.05497 | -21.57727 | 31229 ft | 439 kts | 277° |
| 2026-05-05 16:52 | 54.05787 | -21.68083 | 31234 ft | 440 kts | 276° |
| 2026-05-05 16:52 | 54.06068 | -21.78428 | 31234 ft | 441 kts | 276° |
| 2026-05-05 16:53 | 54.06343 | -21.88843 | 31239 ft | 441 kts | 276° |
| 2026-05-05 16:53 | 54.06606 | -21.99236 | 31241 ft | 441 kts | 277° |
| 2026-05-05 16:54 | 54.06860 | -22.09576 | 31243 ft | 441 kts | 277° |
| 2026-05-05 16:54 | 54.07107 | -22.19994 | 31246 ft | 442 kts | 277° |
| 2026-05-05 16:55 | 54.07346 | -22.30448 | 31245 ft | 444 kts | 277° |
| 2026-05-05 16:55 | 54.07576 | -22.40944 | 31245 ft | 444 kts | 277° |
| 2026-05-05 16:56 | 54.07797 | -22.51396 | 31246 ft | 444 kts | 277° |
| 2026-05-05 16:56 | 54.08010 | -22.61902 | 31247 ft | 444 kts | 277° |
| 2026-05-05 16:57 | 54.08210 | -22.72298 | 31244 ft | 444 kts | 277° |
| 2026-05-05 16:57 | 54.08403 | -22.82767 | 31247 ft | 444 kts | 277° |
| 2026-05-05 16:58 | 54.08586 | -22.93248 | 31246 ft | 444 kts | 277° |
| 2026-05-05 16:58 | 54.08763 | -23.03744 | 31242 ft | 445 kts | 277° |
| 2026-05-05 16:59 | 54.08931 | -23.14255 | 31245 ft | 445 kts | 277° |
| 2026-05-05 16:59 | 54.09088 | -23.24741 | 31244 ft | 445 kts | 277° |
| 2026-05-05 17:00 | 54.09235 | -23.35156 | 31241 ft | 444 kts | 277° |
| 2026-05-05 17:00 | 54.09374 | -23.45669 | 31241 ft | 445 kts | 277° |
| 2026-05-05 17:01 | 54.09505 | -23.56168 | 31246 ft | 445 kts | 277° |
| 2026-05-05 17:01 | 54.09625 | -23.66613 | 31246 ft | 445 kts | 276° |
| 2026-05-05 17:02 | 54.09736 | -23.77122 | 31242 ft | 445 kts | 276° |
| 2026-05-05 17:02 | 54.09840 | -23.87685 | 31252 ft | 446 kts | 276° |
| 2026-05-05 17:03 | 54.09933 | -23.98146 | 31254 ft | 446 kts | 277° |
| 2026-05-05 17:03 | 54.10017 | -24.08676 | 31264 ft | 446 kts | 276° |
| 2026-05-05 17:04 | 54.10092 | -24.19213 | 31261 ft | 445 kts | 276° |
| 2026-05-05 17:04 | 54.10157 | -24.29717 | 31263 ft | 444 kts | 277° |
| 2026-05-05 17:05 | 54.10214 | -24.40181 | 31259 ft | 444 kts | 277° |
| 2026-05-05 17:05 | 54.10263 | -24.50638 | 31261 ft | 444 kts | 276° |
| 2026-05-05 17:06 | 54.10302 | -24.61159 | 31262 ft | 444 kts | 276° |
| 2026-05-05 17:06 | 54.10331 | -24.71678 | 31263 ft | 445 kts | 276° |
| 2026-05-05 17:07 | 54.10351 | -24.82181 | 31262 ft | 445 kts | 276° |
| 2026-05-05 17:07 | 54.10363 | -24.92644 | 31266 ft | 446 kts | 276° |
| 2026-05-05 17:08 | 54.10365 | -25.03196 | 31262 ft | 445 kts | 276° |
| 2026-05-05 17:08 | 54.10357 | -25.13725 | 31261 ft | 445 kts | 276° |
| 2026-05-05 17:09 | 54.10341 | -25.24191 | 31263 ft | 445 kts | 276° |
| 2026-05-05 17:09 | 54.10315 | -25.34682 | 31264 ft | 444 kts | 276° |
| 2026-05-05 17:10 | 54.10280 | -25.45181 | 31264 ft | 444 kts | 276° |
| 2026-05-05 17:10 | 54.10237 | -25.55700 | 31266 ft | 445 kts | 276° |
| 2026-05-05 17:11 | 54.10184 | -25.66174 | 31264 ft | 446 kts | 275° |
| 2026-05-05 17:11 | 54.10122 | -25.76676 | 31271 ft | 445 kts | 275° |
| 2026-05-05 17:12 | 54.10051 | -25.87185 | 31278 ft | 445 kts | 275° |
| 2026-05-05 17:12 | 54.09970 | -25.97708 | 31282 ft | 444 kts | 275° |
| 2026-05-05 17:13 | 54.09882 | -26.08169 | 31283 ft | 444 kts | 275° |
| 2026-05-05 17:13 | 54.09784 | -26.18639 | 31282 ft | 443 kts | 275° |
| 2026-05-05 17:14 | 54.09677 | -26.29122 | 31283 ft | 443 kts | 275° |
| 2026-05-05 17:14 | 54.09561 | -26.39512 | 31283 ft | 443 kts | 275° |
| 2026-05-05 17:15 | 54.09435 | -26.49984 | 31286 ft | 443 kts | 274° |
| 2026-05-05 17:15 | 54.09302 | -26.60393 | 31281 ft | 442 kts | 274° |
| 2026-05-05 17:16 | 54.09158 | -26.70873 | 31285 ft | 443 kts | 274° |
| 2026-05-05 17:16 | 54.09007 | -26.81279 | 31281 ft | 442 kts | 273° |
| 2026-05-05 17:17 | 54.08844 | -26.91736 | 31285 ft | 442 kts | 273° |
| 2026-05-05 17:17 | 54.08675 | -27.02163 | 31286 ft | 443 kts | 273° |
| 2026-05-05 17:18 | 54.08497 | -27.12567 | 31287 ft | 442 kts | 273° |
| 2026-05-05 17:18 | 54.08307 | -27.23020 | 31289 ft | 442 kts | 273° |
| 2026-05-05 17:19 | 54.08110 | -27.33409 | 31288 ft | 442 kts | 273° |
| 2026-05-05 17:19 | 54.07904 | -27.43853 | 31288 ft | 442 kts | 273° |
| 2026-05-05 17:20 | 54.07690 | -27.54272 | 31286 ft | 442 kts | 273° |
| 2026-05-05 17:20 | 54.07467 | -27.64648 | 31287 ft | 441 kts | 273° |
| 2026-05-05 17:21 | 54.07233 | -27.75025 | 31286 ft | 441 kts | 272° |
| 2026-05-05 17:22 | 54.06868 | -27.90616 | 31284 ft | 442 kts | 272° |
| 2026-05-05 17:22 | 54.06612 | -28.01067 | 31283 ft | 442 kts | 272° |
| 2026-05-05 17:23 | 54.06348 | -28.11450 | 31270 ft | 442 kts | 271° |
| 2026-05-05 17:23 | 54.06075 | -28.21863 | 31267 ft | 442 kts | 271° |
| 2026-05-05 17:24 | 54.05794 | -28.32243 | 31263 ft | 442 kts | 271° |
| 2026-05-05 17:24 | 54.05503 | -28.42660 | 31262 ft | 441 kts | 271° |
| 2026-05-05 17:25 | 54.05204 | -28.53030 | 31263 ft | 441 kts | 271° |
| 2026-05-05 17:25 | 54.04895 | -28.63424 | 31261 ft | 441 kts | 271° |
| 2026-05-05 17:26 | 54.04576 | -28.73827 | 31261 ft | 442 kts | 270° |
| 2026-05-05 17:26 | 54.04248 | -28.84221 | 31264 ft | 442 kts | 270° |
| 2026-05-05 17:27 | 54.03912 | -28.94637 | 31268 ft | 443 kts | 270° |
| 2026-05-05 17:27 | 54.03567 | -29.05018 | 31267 ft | 442 kts | 269° |
| 2026-05-05 17:28 | 54.03212 | -29.15432 | 31268 ft | 442 kts | 269° |
| 2026-05-05 17:28 | 54.02847 | -29.25863 | 31267 ft | 442 kts | 269° |
| 2026-05-05 17:29 | 54.02476 | -29.36269 | 31268 ft | 443 kts | 269° |
| 2026-05-05 17:29 | 54.02095 | -29.46662 | 31269 ft | 443 kts | 269° |
| 2026-05-05 17:30 | 54.01707 | -29.57017 | 31268 ft | 443 kts | 269° |
| 2026-05-05 17:30 | 54.01306 | -29.67454 | 31270 ft | 443 kts | 268° |
| 2026-05-05 17:31 | 54.00898 | -29.77842 | 31268 ft | 442 kts | 268° |
| 2026-05-05 17:31 | 54.00481 | -29.88230 | 31268 ft | 443 kts | 268° |
| 2026-05-05 17:32 | 54.00140 | -29.98626 | 31264 ft | 442 kts | 271° |
| 2026-05-05 17:32 | 54.00350 | -30.09043 | 31268 ft | 442 kts | 275° |
| 2026-05-05 17:33 | 54.00770 | -30.19427 | 31264 ft | 443 kts | 275° |
| 2026-05-05 17:33 | 54.01186 | -30.29822 | 31264 ft | 443 kts | 275° |
| 2026-05-05 17:34 | 54.01591 | -30.40263 | 31265 ft | 443 kts | 275° |
| 2026-05-05 17:34 | 54.01985 | -30.50664 | 31267 ft | 444 kts | 275° |
| 2026-05-05 17:35 | 54.02370 | -30.61078 | 31266 ft | 445 kts | 275° |
| 2026-05-05 17:35 | 54.02747 | -30.71538 | 31266 ft | 446 kts | 274° |
| 2026-05-05 17:36 | 54.03116 | -30.82050 | 31267 ft | 447 kts | 274° |
| 2026-05-05 17:36 | 54.03477 | -30.92562 | 31267 ft | 447 kts | 274° |
| 2026-05-05 17:37 | 54.03830 | -31.03083 | 31265 ft | 447 kts | 274° |
| 2026-05-05 17:37 | 54.04171 | -31.13575 | 31266 ft | 447 kts | 274° |
| 2026-05-05 17:38 | 54.04503 | -31.24053 | 31260 ft | 447 kts | 273° |
| 2026-05-05 17:38 | 54.04827 | -31.34614 | 31254 ft | 446 kts | 273° |
| 2026-05-05 17:39 | 54.05140 | -31.45063 | 31247 ft | 446 kts | 273° |
| 2026-05-05 17:39 | 54.05447 | -31.55552 | 31240 ft | 446 kts | 272° |
| 2026-05-05 17:40 | 54.05744 | -31.66064 | 31236 ft | 448 kts | 271° |
| 2026-05-05 17:40 | 54.06032 | -31.76645 | 31234 ft | 448 kts | 271° |
| 2026-05-05 17:41 | 54.06311 | -31.87226 | 31234 ft | 449 kts | 271° |
| 2026-05-05 17:41 | 54.06578 | -31.97745 | 31229 ft | 449 kts | 271° |
| 2026-05-05 17:42 | 54.06838 | -32.08352 | 31228 ft | 449 kts | 271° |
| 2026-05-05 17:42 | 54.07090 | -32.18939 | 31222 ft | 449 kts | 271° |
| 2026-05-05 17:43 | 54.07332 | -32.29484 | 31219 ft | 449 kts | 271° |
| 2026-05-05 17:43 | 54.07566 | -32.40090 | 31217 ft | 450 kts | 270° |
| 2026-05-05 17:44 | 54.07791 | -32.50686 | 31214 ft | 450 kts | 270° |
| 2026-05-05 17:44 | 54.08007 | -32.61342 | 31216 ft | 451 kts | 270° |
| 2026-05-05 17:45 | 54.08212 | -32.71974 | 31211 ft | 452 kts | 269° |
| 2026-05-05 17:45 | 54.08408 | -32.82572 | 31209 ft | 452 kts | 269° |
| 2026-05-05 17:46 | 54.08594 | -32.93225 | 31206 ft | 452 kts | 269° |
| 2026-05-05 17:46 | 54.08773 | -33.03948 | 31205 ft | 452 kts | 269° |
| 2026-05-05 17:47 | 54.08942 | -33.14618 | 31196 ft | 452 kts | 269° |
| 2026-05-05 17:47 | 54.09104 | -33.25298 | 31192 ft | 453 kts | 269° |
| 2026-05-05 17:48 | 54.09255 | -33.36015 | 31194 ft | 453 kts | 269° |
| 2026-05-05 17:48 | 54.09394 | -33.46688 | 31185 ft | 454 kts | 268° |
| 2026-05-05 17:49 | 54.09526 | -33.57436 | 31180 ft | 454 kts | 268° |
| 2026-05-05 17:49 | 54.09648 | -33.68164 | 31178 ft | 454 kts | 267° |
| 2026-05-05 17:50 | 54.09761 | -33.78888 | 31175 ft | 455 kts | 267° |
| 2026-05-05 17:50 | 54.09864 | -33.89630 | 31164 ft | 455 kts | 267° |
| 2026-05-05 17:51 | 54.09957 | -34.00358 | 31167 ft | 455 kts | 266° |
| 2026-05-05 17:51 | 54.10040 | -34.11132 | 31173 ft | 456 kts | 266° |
| 2026-05-05 17:52 | 54.10113 | -34.21848 | 31166 ft | 456 kts | 266° |
| 2026-05-05 17:52 | 54.10179 | -34.32632 | 31168 ft | 456 kts | 266° |
| 2026-05-05 17:53 | 54.10235 | -34.43383 | 31174 ft | 457 kts | 266° |
| 2026-05-05 17:53 | 54.10281 | -34.54174 | 31168 ft | 457 kts | 266° |
| 2026-05-05 17:54 | 54.10316 | -34.64920 | 31157 ft | 457 kts | 266° |
| 2026-05-05 17:54 | 54.10342 | -34.75706 | 31155 ft | 457 kts | 265° |
| 2026-05-05 17:55 | 54.10360 | -34.86480 | 31144 ft | 457 kts | 265° |
| 2026-05-05 17:55 | 54.10367 | -34.97295 | 31139 ft | 457 kts | 265° |
| 2026-05-05 17:56 | 54.10366 | -35.08051 | 31129 ft | 458 kts | 265° |
| 2026-05-05 17:56 | 54.10352 | -35.18874 | 31132 ft | 458 kts | 265° |
| 2026-05-05 17:57 | 54.10330 | -35.29683 | 31123 ft | 458 kts | 265° |
| 2026-05-05 17:57 | 54.10300 | -35.40528 | 31124 ft | 458 kts | 265° |
| 2026-05-05 17:58 | 54.10258 | -35.51323 | 31118 ft | 458 kts | 265° |
| 2026-05-05 17:58 | 54.10209 | -35.62147 | 31107 ft | 458 kts | 265° |
| 2026-05-05 17:59 | 54.10149 | -35.72917 | 31114 ft | 459 kts | 264° |
| 2026-05-05 17:59 | 54.10080 | -35.83767 | 31105 ft | 459 kts | 264° |
| 2026-05-05 18:00 | 54.09999 | -35.94556 | 31109 ft | 459 kts | 263° |
| 2026-05-05 18:00 | 54.09909 | -36.05391 | 31102 ft | 459 kts | 263° |
| 2026-05-05 18:01 | 54.09809 | -36.16189 | 31098 ft | 458 kts | 263° |
| 2026-05-05 18:01 | 54.09700 | -36.26998 | 31100 ft | 459 kts | 264° |
| 2026-05-05 18:02 | 54.09582 | -36.37812 | 31098 ft | 458 kts | 263° |
| 2026-05-05 18:02 | 54.09452 | -36.48608 | 31104 ft | 458 kts | 263° |
| 2026-05-05 18:03 | 54.09314 | -36.59445 | 31115 ft | 457 kts | 263° |
| 2026-05-05 18:03 | 54.09169 | -36.70173 | 31118 ft | 457 kts | 263° |
| 2026-05-05 18:04 | 54.09011 | -36.80963 | 31119 ft | 456 kts | 263° |
| 2026-05-05 18:04 | 54.08844 | -36.91745 | 31121 ft | 456 kts | 262° |
| 2026-05-05 18:05 | 54.08667 | -37.02495 | 31123 ft | 456 kts | 263° |
| 2026-05-05 18:05 | 54.08485 | -37.13183 | 31120 ft | 455 kts | 263° |
| 2026-05-05 18:06 | 54.08289 | -37.23961 | 31119 ft | 456 kts | 263° |
| 2026-05-05 18:06 | 54.08084 | -37.34691 | 31121 ft | 455 kts | 263° |
| 2026-05-05 18:07 | 54.07870 | -37.45433 | 31118 ft | 455 kts | 263° |
| 2026-05-05 18:07 | 54.07646 | -37.56164 | 31121 ft | 455 kts | 263° |
| 2026-05-05 18:08 | 54.07416 | -37.66859 | 31120 ft | 454 kts | 262° |
| 2026-05-05 18:08 | 54.07175 | -37.77523 | 31121 ft | 454 kts | 262° |
| 2026-05-05 18:09 | 54.06924 | -37.88207 | 31121 ft | 453 kts | 262° |
| 2026-05-05 18:09 | 54.06663 | -37.98866 | 31121 ft | 453 kts | 262° |
| 2026-05-05 18:10 | 54.06395 | -38.09510 | 31122 ft | 453 kts | 262° |
| 2026-05-05 18:10 | 54.06116 | -38.20224 | 31126 ft | 452 kts | 262° |
| 2026-05-05 18:11 | 54.05829 | -38.30855 | 31127 ft | 452 kts | 262° |
| 2026-05-05 18:11 | 54.05533 | -38.41487 | 31119 ft | 452 kts | 262° |
| 2026-05-05 18:12 | 54.05226 | -38.52094 | 31116 ft | 451 kts | 262° |
| 2026-05-05 18:12 | 54.04912 | -38.62725 | 31121 ft | 451 kts | 262° |
| 2026-05-05 18:13 | 54.04589 | -38.73273 | 31123 ft | 450 kts | 262° |
| 2026-05-05 18:13 | 54.04255 | -38.83860 | 31114 ft | 450 kts | 262° |
| 2026-05-05 18:14 | 54.03915 | -38.94454 | 31121 ft | 450 kts | 262° |
| 2026-05-05 18:14 | 54.03562 | -39.05051 | 31122 ft | 450 kts | 261° |
| 2026-05-05 18:15 | 54.03204 | -39.15591 | 31104 ft | 450 kts | 261° |
| 2026-05-05 18:15 | 54.02832 | -39.26199 | 31109 ft | 450 kts | 261° |
| 2026-05-05 18:16 | 54.02456 | -39.36708 | 31107 ft | 449 kts | 261° |
| 2026-05-05 18:16 | 54.02067 | -39.47286 | 31083 ft | 449 kts | 261° |
| 2026-05-05 18:17 | 54.01671 | -39.57838 | 31082 ft | 450 kts | 261° |
| 2026-05-05 18:17 | 54.01265 | -39.68404 | 31096 ft | 450 kts | 261° |
| 2026-05-05 18:18 | 54.00849 | -39.79019 | 31097 ft | 449 kts | 261° |
| 2026-05-05 18:18 | 54.00425 | -39.89577 | 31102 ft | 449 kts | 261° |
| 2026-05-05 18:19 | 53.99989 | -40.00132 | 31095 ft | 449 kts | 260° |
| 2026-05-05 18:19 | 53.99417 | -40.10648 | 31116 ft | 449 kts | 259° |
| 2026-05-05 18:20 | 53.98793 | -40.21098 | 31115 ft | 449 kts | 258° |
| 2026-05-05 18:20 | 53.98165 | -40.31608 | 31094 ft | 448 kts | 259° |
| 2026-05-05 18:21 | 53.97541 | -40.42002 | 31082 ft | 448 kts | 259° |
| 2026-05-05 18:21 | 53.96907 | -40.52454 | 31065 ft | 448 kts | 259° |
| 2026-05-05 18:22 | 53.96261 | -40.62962 | 31074 ft | 448 kts | 259° |
| 2026-05-05 18:22 | 53.95613 | -40.73356 | 31065 ft | 447 kts | 258° |
| 2026-05-05 18:23 | 53.94948 | -40.83872 | 31060 ft | 448 kts | 258° |
| 2026-05-05 18:23 | 53.94277 | -40.94333 | 31060 ft | 448 kts | 258° |
| 2026-05-05 18:24 | 53.93597 | -41.04773 | 31056 ft | 447 kts | 258° |
| 2026-05-05 18:24 | 53.92911 | -41.15200 | 31061 ft | 446 kts | 258° |
| 2026-05-05 18:25 | 53.92217 | -41.25598 | 31049 ft | 447 kts | 258° |
| 2026-05-05 18:25 | 53.91509 | -41.36068 | 31043 ft | 447 kts | 258° |
| 2026-05-05 18:26 | 53.90796 | -41.46475 | 31040 ft | 447 kts | 258° |
| 2026-05-05 18:26 | 53.90073 | -41.56874 | 31038 ft | 447 kts | 258° |
| 2026-05-05 18:27 | 53.89342 | -41.67256 | 31030 ft | 446 kts | 257° |
| 2026-05-05 18:27 | 53.88598 | -41.77703 | 31030 ft | 446 kts | 257° |
| 2026-05-05 18:28 | 53.87474 | -41.93242 | 31023 ft | 446 kts | 257° |
| 2026-05-05 18:28 | 53.86707 | -42.03675 | 31018 ft | 446 kts | 257° |
| 2026-05-05 18:29 | 53.85934 | -42.14084 | 31015 ft | 446 kts | 257° |
| 2026-05-05 18:29 | 53.85153 | -42.24452 | 31009 ft | 446 kts | 257° |
| 2026-05-05 18:30 | 53.84363 | -42.34827 | 31005 ft | 445 kts | 257° |
| 2026-05-05 18:30 | 53.83569 | -42.45138 | 31006 ft | 445 kts | 257° |
| 2026-05-05 18:31 | 53.82762 | -42.55476 | 31003 ft | 445 kts | 257° |
| 2026-05-05 18:31 | 53.81947 | -42.65832 | 30998 ft | 445 kts | 256° |
| 2026-05-05 18:32 | 53.81124 | -42.76152 | 31001 ft | 445 kts | 256° |
| 2026-05-05 18:32 | 53.80288 | -42.86531 | 30994 ft | 445 kts | 256° |
| 2026-05-05 18:33 | 53.79450 | -42.96811 | 30993 ft | 445 kts | 257° |
| 2026-05-05 18:33 | 53.78601 | -43.07123 | 30986 ft | 444 kts | 257° |
| 2026-05-05 18:34 | 53.77741 | -43.17454 | 30982 ft | 444 kts | 257° |
| 2026-05-05 18:34 | 53.76876 | -43.27729 | 30979 ft | 444 kts | 257° |
| 2026-05-05 18:35 | 53.76004 | -43.37988 | 30977 ft | 444 kts | 257° |
| 2026-05-05 18:35 | 53.75117 | -43.48306 | 30967 ft | 443 kts | 257° |
| 2026-05-05 18:36 | 53.74231 | -43.58521 | 30968 ft | 443 kts | 257° |
| 2026-05-05 18:36 | 53.73331 | -43.68792 | 30970 ft | 442 kts | 257° |
| 2026-05-05 18:37 | 53.72425 | -43.79017 | 30968 ft | 442 kts | 257° |
| 2026-05-05 18:37 | 53.71511 | -43.89244 | 30964 ft | 442 kts | 257° |
| 2026-05-05 18:38 | 53.70593 | -43.99394 | 30960 ft | 441 kts | 257° |
| 2026-05-05 18:38 | 53.69660 | -44.09622 | 30953 ft | 441 kts | 257° |
| 2026-05-05 18:39 | 53.68722 | -44.19786 | 30951 ft | 441 kts | 257° |
| 2026-05-05 18:39 | 53.67773 | -44.29997 | 30947 ft | 441 kts | 257° |
| 2026-05-05 18:40 | 53.66825 | -44.40103 | 30944 ft | 440 kts | 257° |
| 2026-05-05 18:40 | 53.65858 | -44.50296 | 30938 ft | 440 kts | 257° |
| 2026-05-05 18:41 | 53.64887 | -44.60440 | 30931 ft | 440 kts | 257° |
| 2026-05-05 18:41 | 53.63911 | -44.70555 | 30931 ft | 440 kts | 257° |
| 2026-05-05 18:42 | 53.62926 | -44.80647 | 30925 ft | 439 kts | 257° |
| 2026-05-05 18:42 | 53.61934 | -44.90730 | 30921 ft | 439 kts | 257° |
| 2026-05-05 18:43 | 53.60929 | -45.00861 | 30921 ft | 438 kts | 257° |
| 2026-05-05 18:43 | 53.59919 | -45.10946 | 30914 ft | 438 kts | 257° |
| 2026-05-05 18:44 | 53.58907 | -45.20971 | 30915 ft | 438 kts | 257° |
| 2026-05-05 18:44 | 53.57882 | -45.31031 | 30909 ft | 438 kts | 257° |
| 2026-05-05 18:45 | 53.56846 | -45.41108 | 30904 ft | 438 kts | 257° |
| 2026-05-05 18:45 | 53.55798 | -45.51212 | 30897 ft | 437 kts | 257° |
| 2026-05-05 18:46 | 53.54749 | -45.61236 | 30889 ft | 437 kts | 257° |
| 2026-05-05 18:46 | 53.53697 | -45.71217 | 30882 ft | 437 kts | 257° |
| 2026-05-05 18:47 | 53.52631 | -45.81230 | 30883 ft | 436 kts | 257° |
| 2026-05-05 18:47 | 53.51555 | -45.91274 | 30876 ft | 436 kts | 257° |
| 2026-05-05 18:48 | 53.50471 | -46.01288 | 30874 ft | 436 kts | 257° |
| 2026-05-05 18:48 | 53.49387 | -46.11245 | 30879 ft | 436 kts | 257° |
| 2026-05-05 18:49 | 53.48289 | -46.21235 | 30880 ft | 435 kts | 257° |
| 2026-05-05 18:49 | 53.47190 | -46.31153 | 30867 ft | 435 kts | 257° |
| 2026-05-05 18:50 | 53.46073 | -46.41148 | 30871 ft | 434 kts | 257° |
| 2026-05-05 18:50 | 53.44963 | -46.50997 | 30851 ft | 434 kts | 257° |
| 2026-05-05 18:51 | 53.43838 | -46.60911 | 30852 ft | 434 kts | 257° |
| 2026-05-05 18:51 | 53.42702 | -46.70840 | 30843 ft | 433 kts | 256° |
| 2026-05-05 18:52 | 53.41565 | -46.80700 | 30841 ft | 433 kts | 257° |
| 2026-05-05 18:52 | 53.40419 | -46.90575 | 30832 ft | 433 kts | 257° |
| 2026-05-05 18:53 | 53.39264 | -47.00446 | 30828 ft | 433 kts | 257° |
| 2026-05-05 18:53 | 53.38098 | -47.10347 | 30826 ft | 432 kts | 257° |
| 2026-05-05 18:54 | 53.36932 | -47.20165 | 30823 ft | 432 kts | 257° |
| 2026-05-05 18:54 | 53.35754 | -47.29996 | 30821 ft | 431 kts | 257° |
| 2026-05-05 18:55 | 53.34570 | -47.39819 | 30816 ft | 431 kts | 257° |
| 2026-05-05 18:55 | 53.33383 | -47.49595 | 30812 ft | 431 kts | 257° |
| 2026-05-05 18:56 | 53.32183 | -47.59402 | 30809 ft | 431 kts | 257° |
| 2026-05-05 18:56 | 53.30973 | -47.69217 | 30802 ft | 431 kts | 256° |
| 2026-05-05 18:57 | 53.29763 | -47.78962 | 30799 ft | 430 kts | 256° |
| 2026-05-05 18:57 | 53.28540 | -47.88745 | 30786 ft | 430 kts | 256° |
| 2026-05-05 18:58 | 53.27311 | -47.98502 | 30781 ft | 430 kts | 256° |
| 2026-05-05 18:58 | 53.26075 | -48.08249 | 30774 ft | 430 kts | 256° |
| 2026-05-05 18:59 | 53.24837 | -48.17944 | 30775 ft | 430 kts | 256° |
| 2026-05-05 18:59 | 53.23589 | -48.27645 | 30770 ft | 430 kts | 256° |
| 2026-05-05 19:00 | 53.22329 | -48.37376 | 30773 ft | 429 kts | 256° |
| 2026-05-05 19:00 | 53.21066 | -48.47074 | 30764 ft | 429 kts | 256° |
| 2026-05-05 19:01 | 53.19793 | -48.56773 | 30766 ft | 428 kts | 256° |
| 2026-05-05 19:01 | 53.18518 | -48.66425 | 30760 ft | 429 kts | 256° |
| 2026-05-05 19:02 | 53.17233 | -48.76092 | 30760 ft | 428 kts | 256° |
| 2026-05-05 19:02 | 53.15945 | -48.85713 | 30749 ft | 428 kts | 256° |
| 2026-05-05 19:03 | 53.14645 | -48.95354 | 30736 ft | 428 kts | 256° |
| 2026-05-05 19:03 | 53.13339 | -49.04991 | 30729 ft | 427 kts | 256° |
| 2026-05-05 19:04 | 53.12029 | -49.14591 | 30725 ft | 427 kts | 256° |
| 2026-05-05 19:04 | 53.10707 | -49.24216 | 30730 ft | 427 kts | 256° |
| 2026-05-05 19:05 | 53.09382 | -49.33787 | 30728 ft | 427 kts | 256° |
| 2026-05-05 19:05 | 53.08053 | -49.43340 | 30730 ft | 427 kts | 256° |
| 2026-05-05 19:06 | 53.06714 | -49.52896 | 30727 ft | 426 kts | 256° |
| 2026-05-05 19:06 | 53.05365 | -49.62460 | 30724 ft | 426 kts | 256° |
| 2026-05-05 19:07 | 53.04013 | -49.71999 | 30722 ft | 426 kts | 256° |
| 2026-05-05 19:07 | 53.02653 | -49.81538 | 30718 ft | 425 kts | 256° |
| 2026-05-05 19:08 | 53.01291 | -49.91020 | 30707 ft | 425 kts | 256° |
| 2026-05-05 19:08 | 52.99752 | -50.00445 | 30699 ft | 424 kts | 251° |
| 2026-05-05 19:09 | 52.97691 | -50.09544 | 30709 ft | 424 kts | 248° |
| 2026-05-05 19:09 | 52.95511 | -50.18613 | 30719 ft | 423 kts | 249° |
| 2026-05-05 19:10 | 52.93333 | -50.27645 | 30710 ft | 423 kts | 248° |
| 2026-05-05 19:10 | 52.91160 | -50.36610 | 30714 ft | 422 kts | 249° |
| 2026-05-05 19:11 | 52.88976 | -50.45589 | 30704 ft | 422 kts | 249° |
| 2026-05-05 19:11 | 52.86785 | -50.54547 | 30717 ft | 422 kts | 249° |
| 2026-05-05 19:12 | 52.84592 | -50.63487 | 30710 ft | 421 kts | 249° |
| 2026-05-05 19:12 | 52.82383 | -50.72458 | 30702 ft | 421 kts | 248° |
| 2026-05-05 19:13 | 52.80179 | -50.81366 | 30703 ft | 421 kts | 248° |
| 2026-05-05 19:13 | 52.77969 | -50.90268 | 30692 ft | 421 kts | 248° |
| 2026-05-05 19:14 | 52.75753 | -50.99155 | 30697 ft | 420 kts | 248° |
| 2026-05-05 19:14 | 52.73521 | -51.08069 | 30682 ft | 420 kts | 248° |
| 2026-05-05 19:15 | 52.71295 | -51.16922 | 30687 ft | 420 kts | 249° |
| 2026-05-05 19:15 | 52.69064 | -51.25761 | 30686 ft | 419 kts | 249° |
| 2026-05-05 19:16 | 52.66825 | -51.34594 | 30688 ft | 418 kts | 249° |
| 2026-05-05 19:16 | 52.64585 | -51.43402 | 30691 ft | 418 kts | 249° |
| 2026-05-05 19:17 | 52.62346 | -51.52169 | 30692 ft | 417 kts | 249° |
| 2026-05-05 19:17 | 52.60102 | -51.60923 | 30688 ft | 417 kts | 249° |
| 2026-05-05 19:18 | 52.57850 | -51.69667 | 30683 ft | 416 kts | 248° |
| 2026-05-05 19:18 | 52.55595 | -51.78398 | 30687 ft | 416 kts | 249° |
| 2026-05-05 19:19 | 52.53347 | -51.87063 | 30688 ft | 415 kts | 249° |
| 2026-05-05 19:19 | 52.51080 | -51.95771 | 30697 ft | 415 kts | 249° |
| 2026-05-05 19:20 | 52.48824 | -52.04402 | 30689 ft | 414 kts | 249° |
| 2026-05-05 19:20 | 52.46563 | -52.13020 | 30689 ft | 414 kts | 249° |
| 2026-05-05 19:21 | 52.44288 | -52.21654 | 30686 ft | 413 kts | 249° |
| 2026-05-05 19:21 | 52.42009 | -52.30274 | 30674 ft | 413 kts | 249° |
| 2026-05-05 19:22 | 52.39735 | -52.38843 | 30675 ft | 412 kts | 249° |
| 2026-05-05 19:22 | 52.37446 | -52.47438 | 30710 ft | 412 kts | 249° |
| 2026-05-05 19:23 | 52.35157 | -52.56000 | 30829 ft | 412 kts | 249° |
| 2026-05-05 19:23 | 52.32870 | -52.64520 | 30962 ft | 411 kts | 249° |
| 2026-05-05 19:24 | 52.30582 | -52.73006 | 31102 ft | 411 kts | 249° |
| 2026-05-05 19:24 | 52.28286 | -52.81500 | 31222 ft | 410 kts | 249° |
| 2026-05-05 19:25 | 52.25976 | -52.90015 | 31331 ft | 410 kts | 249° |
| 2026-05-05 19:25 | 52.23678 | -52.98458 | 31466 ft | 409 kts | 249° |
| 2026-05-05 19:26 | 52.21374 | -53.06893 | 31597 ft | 409 kts | 249° |
| 2026-05-05 19:26 | 52.19070 | -53.15286 | 31716 ft | 409 kts | 249° |
| 2026-05-05 19:27 | 52.16751 | -53.23703 | 31860 ft | 408 kts | 249° |
| 2026-05-05 19:27 | 52.14427 | -53.32118 | 31978 ft | 408 kts | 249° |
| 2026-05-05 19:28 | 52.12109 | -53.40475 | 32117 ft | 408 kts | 249° |
| 2026-05-05 19:28 | 52.09778 | -53.48856 | 32241 ft | 408 kts | 249° |
| 2026-05-05 19:29 | 52.07448 | -53.57196 | 32368 ft | 407 kts | 249° |
| 2026-05-05 19:29 | 52.05117 | -53.65503 | 32499 ft | 407 kts | 249° |
| 2026-05-05 19:30 | 52.02775 | -53.73824 | 32626 ft | 406 kts | 249° |
| 2026-05-05 19:30 | 52.00432 | -53.82124 | 32774 ft | 405 kts | 249° |
| 2026-05-05 19:31 | 51.98093 | -53.90390 | 32890 ft | 405 kts | 249° |
| 2026-05-05 19:31 | 51.95737 | -53.98682 | 32999 ft | 405 kts | 249° |
| 2026-05-05 19:32 | 51.93379 | -54.06952 | 33151 ft | 405 kts | 249° |
| 2026-05-05 19:32 | 51.91011 | -54.15215 | 33292 ft | 405 kts | 249° |
| 2026-05-05 19:33 | 51.88641 | -54.23466 | 33403 ft | 405 kts | 249° |
| 2026-05-05 19:33 | 51.86278 | -54.31663 | 33552 ft | 404 kts | 249° |
| 2026-05-05 19:34 | 51.83919 | -54.39829 | 33680 ft | 404 kts | 249° |
| 2026-05-05 19:35 | 51.80294 | -54.52121 | 33713 ft | 404 kts | 246° |
| 2026-05-05 19:35 | 51.77478 | -54.59934 | 33713 ft | 404 kts | 243° |
| 2026-05-05 19:36 | 51.74581 | -54.67586 | 33710 ft | 403 kts | 243° |
| 2026-05-05 19:36 | 51.71656 | -54.75296 | 33721 ft | 402 kts | 243° |
| 2026-05-05 19:37 | 51.68741 | -54.82958 | 33709 ft | 402 kts | 243° |
| 2026-05-05 19:37 | 51.65837 | -54.90559 | 33731 ft | 401 kts | 243° |
| 2026-05-05 19:38 | 51.62920 | -54.98176 | 33723 ft | 401 kts | 243° |
| 2026-05-05 19:38 | 51.60004 | -55.05762 | 33711 ft | 400 kts | 243° |
| 2026-05-05 19:39 | 51.57072 | -55.13367 | 33715 ft | 400 kts | 243° |
| 2026-05-05 19:39 | 51.54149 | -55.20927 | 33738 ft | 399 kts | 243° |
| 2026-05-05 19:40 | 51.51235 | -55.28443 | 33740 ft | 398 kts | 244° |
| 2026-05-05 19:40 | 51.48319 | -55.35942 | 33740 ft | 397 kts | 244° |
| 2026-05-05 19:41 | 51.45404 | -55.43420 | 33732 ft | 397 kts | 244° |
| 2026-05-05 19:41 | 51.42483 | -55.50888 | 33738 ft | 397 kts | 244° |
| 2026-05-05 19:42 | 51.39552 | -55.58359 | 33737 ft | 396 kts | 244° |
| 2026-05-05 19:42 | 51.36638 | -55.65766 | 33747 ft | 395 kts | 244° |
| 2026-05-05 19:43 | 51.33718 | -55.73164 | 33752 ft | 394 kts | 244° |
| 2026-05-05 19:43 | 51.30803 | -55.80533 | 33733 ft | 394 kts | 244° |
| 2026-05-05 19:44 | 51.27894 | -55.87870 | 33744 ft | 393 kts | 244° |
| 2026-05-05 19:44 | 51.24976 | -55.95201 | 33736 ft | 392 kts | 244° |
| 2026-05-05 19:45 | 51.22064 | -56.02501 | 33750 ft | 391 kts | 244° |
| 2026-05-05 19:45 | 51.19150 | -56.09781 | 33721 ft | 391 kts | 244° |
| 2026-05-05 19:46 | 51.16240 | -56.17030 | 33722 ft | 390 kts | 245° |
| 2026-05-05 19:46 | 51.13311 | -56.24316 | 33719 ft | 391 kts | 244° |
| 2026-05-05 19:47 | 51.10389 | -56.31560 | 33718 ft | 391 kts | 245° |
| 2026-05-05 19:47 | 51.07448 | -56.38822 | 33730 ft | 391 kts | 245° |
| 2026-05-05 19:48 | 51.04519 | -56.46041 | 33738 ft | 391 kts | 245° |
| 2026-05-05 19:48 | 51.01573 | -56.53281 | 33733 ft | 391 kts | 245° |
| 2026-05-05 19:49 | 50.98632 | -56.60487 | 33722 ft | 391 kts | 245° |
| 2026-05-05 19:49 | 50.95670 | -56.67729 | 33735 ft | 391 kts | 244° |
| 2026-05-05 19:50 | 50.92732 | -56.74888 | 33726 ft | 391 kts | 244° |
| 2026-05-05 19:50 | 50.89762 | -56.82104 | 33734 ft | 391 kts | 244° |
| 2026-05-05 19:51 | 50.86788 | -56.89314 | 33731 ft | 391 kts | 244° |
| 2026-05-05 19:51 | 50.83834 | -56.96451 | 33748 ft | 391 kts | 244° |
| 2026-05-05 19:52 | 50.80840 | -57.03666 | 33751 ft | 392 kts | 244° |
| 2026-05-05 19:52 | 50.77859 | -57.10833 | 33769 ft | 391 kts | 244° |
| 2026-05-05 19:53 | 50.74884 | -57.17963 | 33762 ft | 390 kts | 244° |
| 2026-05-05 19:53 | 50.71917 | -57.25048 | 33774 ft | 390 kts | 244° |
| 2026-05-05 19:54 | 50.68934 | -57.32166 | 33770 ft | 390 kts | 244° |
| 2026-05-05 19:54 | 50.65939 | -57.39285 | 33779 ft | 390 kts | 244° |
| 2026-05-05 19:55 | 50.62964 | -57.46342 | 33780 ft | 389 kts | 244° |
| 2026-05-05 19:55 | 50.59972 | -57.53411 | 33786 ft | 388 kts | 244° |
| 2026-05-05 19:56 | 50.56994 | -57.60436 | 33785 ft | 388 kts | 244° |
| 2026-05-05 19:56 | 50.53997 | -57.67482 | 33788 ft | 387 kts | 244° |
| 2026-05-05 19:57 | 50.51030 | -57.74446 | 33788 ft | 387 kts | 244° |
| 2026-05-05 19:57 | 50.48045 | -57.81428 | 33789 ft | 386 kts | 244° |
| 2026-05-05 19:58 | 50.45051 | -57.88410 | 33802 ft | 386 kts | 244° |
| 2026-05-05 19:58 | 50.42062 | -57.95370 | 33795 ft | 386 kts | 244° |
| 2026-05-05 19:59 | 50.39070 | -58.02313 | 33798 ft | 385 kts | 244° |
| 2026-05-05 19:59 | 50.36080 | -58.09237 | 33810 ft | 385 kts | 244° |
| 2026-05-05 20:00 | 50.33082 | -58.16151 | 33803 ft | 384 kts | 244° |
| 2026-05-05 20:00 | 50.30097 | -58.23025 | 33821 ft | 384 kts | 244° |
| 2026-05-05 20:01 | 50.27098 | -58.29917 | 33819 ft | 384 kts | 244° |
| 2026-05-05 20:01 | 50.24104 | -58.36771 | 33822 ft | 384 kts | 244° |
| 2026-05-05 20:02 | 50.21111 | -58.43614 | 33824 ft | 383 kts | 244° |
| 2026-05-05 20:02 | 50.18106 | -58.50458 | 33821 ft | 383 kts | 244° |
| 2026-05-05 20:03 | 50.15112 | -58.57258 | 33826 ft | 382 kts | 244° |
| 2026-05-05 20:03 | 50.12107 | -58.64073 | 33819 ft | 382 kts | 244° |
| 2026-05-05 20:04 | 50.09098 | -58.70874 | 33817 ft | 382 kts | 244° |
| 2026-05-05 20:04 | 50.06097 | -58.77645 | 33813 ft | 381 kts | 243° |
| 2026-05-05 20:05 | 50.03078 | -58.84439 | 33802 ft | 382 kts | 243° |
| 2026-05-05 20:05 | 50.00070 | -58.91187 | 33800 ft | 382 kts | 243° |
| 2026-05-05 20:06 | 49.97056 | -58.97933 | 33816 ft | 382 kts | 243° |
| 2026-05-05 20:06 | 49.94033 | -59.04676 | 33821 ft | 382 kts | 243° |
| 2026-05-05 20:07 | 49.91000 | -59.11432 | 33820 ft | 382 kts | 243° |
| 2026-05-05 20:07 | 49.87972 | -59.18158 | 33813 ft | 382 kts | 243° |
| 2026-05-05 20:08 | 49.84942 | -59.24874 | 33817 ft | 381 kts | 243° |
| 2026-05-05 20:08 | 49.81905 | -59.31587 | 33820 ft | 381 kts | 243° |
| 2026-05-05 20:09 | 49.78884 | -59.38243 | 33819 ft | 381 kts | 243° |
| 2026-05-05 20:09 | 49.75834 | -59.44947 | 33816 ft | 381 kts | 243° |
| 2026-05-05 20:10 | 49.72805 | -59.51590 | 33822 ft | 381 kts | 243° |
| 2026-05-05 20:10 | 49.69760 | -59.58254 | 33815 ft | 381 kts | 243° |
| 2026-05-05 20:11 | 49.66709 | -59.64916 | 33817 ft | 381 kts | 243° |
| 2026-05-05 20:11 | 49.63657 | -59.71550 | 33820 ft | 381 kts | 242° |
| 2026-05-05 20:12 | 49.60602 | -59.78183 | 33816 ft | 381 kts | 243° |
| 2026-05-05 20:12 | 49.57547 | -59.84807 | 33814 ft | 380 kts | 242° |
| 2026-05-05 20:13 | 49.54487 | -59.91427 | 33812 ft | 380 kts | 242° |
| 2026-05-05 20:13 | 49.51410 | -59.98053 | 33810 ft | 380 kts | 242° |
| 2026-05-05 20:14 | 49.48360 | -60.04612 | 33807 ft | 380 kts | 242° |
| 2026-05-05 20:14 | 49.45291 | -60.11199 | 33806 ft | 381 kts | 242° |
| 2026-05-05 20:15 | 49.42293 | -60.17606 | 33809 ft | 380 kts | 242° |
| 2026-05-05 20:15 | 49.39218 | -60.24174 | 33803 ft | 380 kts | 242° |
| 2026-05-05 20:16 | 49.36123 | -60.30759 | 33806 ft | 380 kts | 242° |
| 2026-05-05 20:16 | 49.33036 | -60.37317 | 33802 ft | 381 kts | 242° |
| 2026-05-05 20:17 | 49.29935 | -60.43889 | 33797 ft | 381 kts | 241° |
| 2026-05-05 20:17 | 49.26849 | -60.50408 | 33793 ft | 381 kts | 242° |
| 2026-05-05 20:18 | 49.23750 | -60.56938 | 33790 ft | 381 kts | 241° |
| 2026-05-05 20:18 | 49.20638 | -60.63483 | 33790 ft | 381 kts | 241° |
| 2026-05-05 20:19 | 49.17515 | -60.70027 | 33791 ft | 381 kts | 240° |
| 2026-05-05 20:19 | 49.14415 | -60.76515 | 33790 ft | 381 kts | 240° |
| 2026-05-05 20:20 | 49.11298 | -60.83023 | 33796 ft | 381 kts | 240° |
| 2026-05-05 20:20 | 49.08171 | -60.89539 | 33791 ft | 381 kts | 240° |
| 2026-05-05 20:21 | 49.05047 | -60.96024 | 33794 ft | 381 kts | 240° |
| 2026-05-05 20:21 | 49.01915 | -61.02519 | 33786 ft | 381 kts | 240° |
| 2026-05-05 20:22 | 48.98790 | -61.08977 | 33776 ft | 381 kts | 240° |
| 2026-05-05 20:22 | 48.95654 | -61.15444 | 33773 ft | 381 kts | 240° |
| 2026-05-05 20:23 | 48.92516 | -61.21903 | 33773 ft | 382 kts | 240° |
| 2026-05-05 20:23 | 48.89362 | -61.28375 | 33768 ft | 382 kts | 240° |
| 2026-05-05 20:24 | 48.86210 | -61.34831 | 33773 ft | 382 kts | 240° |
| 2026-05-05 20:24 | 48.83043 | -61.41304 | 33776 ft | 382 kts | 239° |
| 2026-05-05 20:25 | 48.79872 | -61.47756 | 33773 ft | 382 kts | 240° |
| 2026-05-05 20:25 | 48.76721 | -61.54168 | 33774 ft | 382 kts | 239° |
| 2026-05-05 20:26 | 48.73553 | -61.60593 | 33774 ft | 382 kts | 239° |
| 2026-05-05 20:26 | 48.70380 | -61.67009 | 33773 ft | 382 kts | 239° |
| 2026-05-05 20:27 | 48.67196 | -61.73436 | 33770 ft | 382 kts | 238° |
| 2026-05-05 20:27 | 48.64020 | -61.79833 | 33764 ft | 382 kts | 238° |
| 2026-05-05 20:28 | 48.60835 | -61.86231 | 33765 ft | 382 kts | 238° |
| 2026-05-05 20:28 | 48.57653 | -61.92610 | 33762 ft | 382 kts | 238° |
| 2026-05-05 20:29 | 48.54460 | -61.98993 | 33763 ft | 383 kts | 238° |
| 2026-05-05 20:29 | 48.51269 | -62.05356 | 33765 ft | 383 kts | 238° |
| 2026-05-05 20:30 | 48.48059 | -62.11747 | 33764 ft | 383 kts | 238° |
| 2026-05-05 20:30 | 48.44842 | -62.18129 | 33764 ft | 383 kts | 238° |
| 2026-05-05 20:31 | 48.41638 | -62.24476 | 33769 ft | 382 kts | 238° |
| 2026-05-05 20:31 | 48.38443 | -62.30788 | 33765 ft | 382 kts | 238° |
| 2026-05-05 20:32 | 48.35233 | -62.37117 | 33761 ft | 382 kts | 238° |
| 2026-05-05 20:32 | 48.32010 | -62.43453 | 33755 ft | 381 kts | 238° |
| 2026-05-05 20:33 | 48.28801 | -62.49750 | 33756 ft | 382 kts | 238° |
| 2026-05-05 20:33 | 48.25582 | -62.56050 | 33757 ft | 381 kts | 238° |
| 2026-05-05 20:34 | 48.22349 | -62.62365 | 33754 ft | 381 kts | 238° |
| 2026-05-05 20:34 | 48.19134 | -62.68631 | 33758 ft | 381 kts | 237° |
| 2026-05-05 20:35 | 48.15913 | -62.74891 | 33756 ft | 381 kts | 237° |
| 2026-05-05 20:35 | 48.12664 | -62.81193 | 33757 ft | 381 kts | 237° |
| 2026-05-05 20:36 | 48.09445 | -62.87420 | 33755 ft | 381 kts | 237° |
| 2026-05-05 20:36 | 48.06212 | -62.93665 | 33755 ft | 381 kts | 237° |
| 2026-05-05 20:37 | 48.02954 | -62.99936 | 33757 ft | 381 kts | 236° |
| 2026-05-05 20:37 | 47.99709 | -63.06173 | 33755 ft | 382 kts | 237° |
| 2026-05-05 20:38 | 47.96456 | -63.12408 | 33745 ft | 381 kts | 236° |
| 2026-05-05 20:38 | 47.93202 | -63.18633 | 33738 ft | 381 kts | 237° |
| 2026-05-05 20:39 | 47.89951 | -63.24837 | 33738 ft | 381 kts | 236° |
| 2026-05-05 20:39 | 47.86695 | -63.31035 | 33738 ft | 381 kts | 237° |
| 2026-05-05 20:40 | 47.83429 | -63.37242 | 33734 ft | 381 kts | 236° |
| 2026-05-05 20:40 | 47.80188 | -63.43385 | 33726 ft | 381 kts | 236° |
| 2026-05-05 20:41 | 47.76904 | -63.49593 | 33727 ft | 381 kts | 236° |
| 2026-05-05 20:41 | 47.73647 | -63.55743 | 33728 ft | 381 kts | 236° |
| 2026-05-05 20:42 | 47.70372 | -63.61908 | 33732 ft | 381 kts | 236° |
| 2026-05-05 20:42 | 47.67098 | -63.68058 | 33737 ft | 381 kts | 235° |
| 2026-05-05 20:43 | 47.63840 | -63.74158 | 33735 ft | 380 kts | 236° |
| 2026-05-05 20:43 | 47.60559 | -63.80296 | 33727 ft | 380 kts | 236° |
| 2026-05-05 20:44 | 47.57280 | -63.86417 | 33726 ft | 380 kts | 236° |
| 2026-05-05 20:44 | 47.54001 | -63.92516 | 33723 ft | 380 kts | 236° |
| 2026-05-05 20:45 | 47.49028 | -64.01756 | 33724 ft | 391 kts | 236° |
| 2026-05-05 20:45 | 47.45615 | -64.08075 | 33726 ft | 397 kts | 235° |
| 2026-05-05 20:46 | 47.42173 | -64.14423 | 33708 ft | 397 kts | 235° |
| 2026-05-05 20:46 | 47.38721 | -64.20785 | 33720 ft | 397 kts | 235° |
| 2026-05-05 20:47 | 47.35280 | -64.27110 | 33713 ft | 396 kts | 235° |
| 2026-05-05 20:47 | 47.31829 | -64.33437 | 33714 ft | 397 kts | 235° |
| 2026-05-05 20:48 | 47.28389 | -64.39729 | 33711 ft | 397 kts | 235° |
| 2026-05-05 20:48 | 47.24927 | -64.46049 | 33715 ft | 397 kts | 235° |
| 2026-05-05 20:49 | 47.21471 | -64.52343 | 33712 ft | 397 kts | 235° |
| 2026-05-05 20:49 | 47.17989 | -64.58669 | 33714 ft | 397 kts | 235° |
| 2026-05-05 20:50 | 47.14521 | -64.64959 | 33718 ft | 397 kts | 235° |
| 2026-05-05 20:50 | 47.11045 | -64.71244 | 33717 ft | 397 kts | 234° |
| 2026-05-05 20:51 | 47.07568 | -64.77519 | 33711 ft | 397 kts | 234° |
| 2026-05-05 20:51 | 47.04090 | -64.83778 | 33706 ft | 397 kts | 234° |
| 2026-05-05 20:52 | 47.00625 | -64.90007 | 33702 ft | 398 kts | 234° |
| 2026-05-05 20:52 | 46.97133 | -64.96268 | 33690 ft | 397 kts | 234° |
| 2026-05-05 20:53 | 46.93624 | -65.02547 | 33699 ft | 398 kts | 234° |
| 2026-05-05 20:53 | 46.90126 | -65.08784 | 33701 ft | 398 kts | 234° |
| 2026-05-05 20:54 | 46.86606 | -65.15050 | 33730 ft | 399 kts | 234° |
| 2026-05-05 20:54 | 46.83095 | -65.21284 | 33728 ft | 399 kts | 234° |
| 2026-05-05 20:55 | 46.79599 | -65.27479 | 33725 ft | 399 kts | 234° |
| 2026-05-05 20:55 | 46.76054 | -65.33747 | 33721 ft | 399 kts | 234° |
| 2026-05-05 20:56 | 46.72533 | -65.39958 | 33727 ft | 399 kts | 234° |
| 2026-05-05 20:56 | 46.69029 | -65.46127 | 33718 ft | 398 kts | 234° |
| 2026-05-05 20:57 | 46.65499 | -65.52322 | 33724 ft | 398 kts | 234° |
| 2026-05-05 20:57 | 46.61968 | -65.58511 | 33721 ft | 398 kts | 234° |
| 2026-05-05 20:58 | 46.58450 | -65.64659 | 33729 ft | 398 kts | 233° |
| 2026-05-05 20:58 | 46.54897 | -65.70857 | 33728 ft | 398 kts | 233° |
| 2026-05-05 20:59 | 46.51376 | -65.76985 | 33725 ft | 398 kts | 233° |
| 2026-05-05 20:59 | 46.47821 | -65.83159 | 33725 ft | 398 kts | 233° |
| 2026-05-05 21:00 | 46.44286 | -65.89288 | 33731 ft | 398 kts | 233° |
| 2026-05-05 21:00 | 46.40734 | -65.95424 | 33735 ft | 399 kts | 233° |
| 2026-05-05 21:01 | 46.37157 | -66.01594 | 33734 ft | 399 kts | 233° |
| 2026-05-05 21:01 | 46.33607 | -66.07703 | 33723 ft | 398 kts | 233° |
| 2026-05-05 21:02 | 46.30054 | -66.13806 | 33730 ft | 399 kts | 233° |
| 2026-05-05 21:02 | 46.26477 | -66.19936 | 33744 ft | 398 kts | 233° |
| 2026-05-05 21:03 | 46.22923 | -66.26010 | 33748 ft | 396 kts | 233° |
| 2026-05-05 21:03 | 46.19362 | -66.32085 | 33749 ft | 397 kts | 233° |
| 2026-05-05 21:04 | 46.15800 | -66.38150 | 33762 ft | 398 kts | 233° |
| 2026-05-05 21:04 | 46.12238 | -66.44199 | 33747 ft | 397 kts | 232° |
| 2026-05-05 21:05 | 46.08679 | -66.50231 | 33758 ft | 398 kts | 232° |
| 2026-05-05 21:05 | 46.05088 | -66.56301 | 33758 ft | 398 kts | 232° |
| 2026-05-05 21:06 | 46.01521 | -66.62322 | 33747 ft | 398 kts | 232° |
| 2026-05-05 21:06 | 45.97918 | -66.68387 | 33750 ft | 400 kts | 232° |
| 2026-05-05 21:07 | 45.94304 | -66.74458 | 33738 ft | 401 kts | 232° |
| 2026-05-05 21:07 | 45.90689 | -66.80514 | 33731 ft | 402 kts | 232° |
| 2026-05-05 21:08 | 45.87048 | -66.86603 | 33734 ft | 401 kts | 232° |
| 2026-05-05 21:08 | 45.83415 | -66.92665 | 33734 ft | 402 kts | 232° |
| 2026-05-05 21:09 | 45.79784 | -66.98714 | 33737 ft | 401 kts | 232° |
| 2026-05-05 21:09 | 45.76149 | -67.04758 | 33742 ft | 402 kts | 232° |
| 2026-05-05 21:10 | 45.72511 | -67.10788 | 33747 ft | 403 kts | 232° |
| 2026-05-05 21:10 | 45.68841 | -67.16859 | 33752 ft | 403 kts | 232° |
| 2026-05-05 21:11 | 45.65182 | -67.22900 | 33746 ft | 402 kts | 232° |
| 2026-05-05 21:11 | 45.61527 | -67.28919 | 33756 ft | 403 kts | 232° |
| 2026-05-05 21:12 | 45.57867 | -67.34936 | 33769 ft | 402 kts | 232° |
| 2026-05-05 21:12 | 45.54208 | -67.40939 | 33757 ft | 402 kts | 232° |
| 2026-05-05 21:13 | 45.50554 | -67.46922 | 33763 ft | 402 kts | 232° |
| 2026-05-05 21:13 | 45.46875 | -67.52933 | 33752 ft | 403 kts | 232° |
| 2026-05-05 21:14 | 45.43192 | -67.58938 | 33760 ft | 403 kts | 232° |
| 2026-05-05 21:14 | 45.39518 | -67.64916 | 33760 ft | 404 kts | 232° |
| 2026-05-05 21:15 | 45.35804 | -67.70945 | 33754 ft | 404 kts | 231° |
| 2026-05-05 21:15 | 45.32100 | -67.76891 | 33759 ft | 405 kts | 230° |
| 2026-05-05 21:16 | 45.28327 | -67.82825 | 33753 ft | 406 kts | 230° |
| 2026-05-05 21:16 | 45.24550 | -67.88762 | 33760 ft | 406 kts | 230° |
| 2026-05-05 21:17 | 45.20762 | -67.94707 | 33759 ft | 406 kts | 231° |
| 2026-05-05 21:17 | 45.16998 | -68.00610 | 33766 ft | 406 kts | 230° |
| 2026-05-05 21:18 | 45.13218 | -68.06524 | 33757 ft | 406 kts | 231° |
| 2026-05-05 21:18 | 45.09431 | -68.12438 | 33761 ft | 407 kts | 230° |
| 2026-05-05 21:19 | 45.05644 | -68.18344 | 33751 ft | 408 kts | 230° |
| 2026-05-05 21:19 | 45.01807 | -68.24307 | 33754 ft | 408 kts | 230° |
| 2026-05-05 21:20 | 44.97996 | -68.30223 | 33769 ft | 409 kts | 230° |
| 2026-05-05 21:20 | 44.94190 | -68.36115 | 33763 ft | 409 kts | 230° |
| 2026-05-05 21:21 | 44.90353 | -68.42044 | 33768 ft | 409 kts | 230° |
| 2026-05-05 21:21 | 44.86530 | -68.47938 | 33760 ft | 409 kts | 230° |
| 2026-05-05 21:22 | 44.82683 | -68.53857 | 33756 ft | 409 kts | 230° |
| 2026-05-05 21:22 | 44.78840 | -68.59755 | 33754 ft | 410 kts | 230° |
| 2026-05-05 21:23 | 44.75005 | -68.65630 | 33756 ft | 410 kts | 229° |
| 2026-05-05 21:23 | 44.71129 | -68.71555 | 33756 ft | 411 kts | 230° |
| 2026-05-05 21:24 | 44.67288 | -68.77415 | 33755 ft | 411 kts | 230° |
| 2026-05-05 21:24 | 44.63403 | -68.83340 | 33768 ft | 412 kts | 229° |
| 2026-05-05 21:25 | 44.59184 | -68.88753 | 33773 ft | 415 kts | 223° |
| 2026-05-05 21:25 | 44.54774 | -68.93913 | 33766 ft | 414 kts | 222° |
| 2026-05-05 21:26 | 44.50378 | -68.99077 | 33772 ft | 413 kts | 223° |
| 2026-05-05 21:26 | 44.45966 | -69.04267 | 33774 ft | 414 kts | 223° |
| 2026-05-05 21:27 | 44.41584 | -69.09423 | 33777 ft | 414 kts | 223° |
| 2026-05-05 21:27 | 44.37183 | -69.14597 | 33771 ft | 414 kts | 223° |
| 2026-05-05 21:28 | 44.32761 | -69.19785 | 33783 ft | 415 kts | 223° |
| 2026-05-05 21:28 | 44.28351 | -69.24952 | 33783 ft | 416 kts | 223° |
| 2026-05-05 21:29 | 44.23934 | -69.30114 | 33773 ft | 417 kts | 223° |
| 2026-05-05 21:29 | 44.19501 | -69.35287 | 33773 ft | 417 kts | 223° |
| 2026-05-05 21:30 | 44.15063 | -69.40456 | 33778 ft | 418 kts | 223° |
| 2026-05-05 21:30 | 44.10605 | -69.45632 | 33778 ft | 419 kts | 223° |
| 2026-05-05 21:31 | 44.06129 | -69.50820 | 33776 ft | 419 kts | 223° |
| 2026-05-05 21:31 | 44.01662 | -69.55988 | 33786 ft | 419 kts | 223° |
| 2026-05-05 21:32 | 43.97185 | -69.61157 | 33788 ft | 419 kts | 223° |
| 2026-05-05 21:32 | 43.92726 | -69.66297 | 33792 ft | 419 kts | 222° |
| 2026-05-05 21:33 | 43.88238 | -69.71459 | 33787 ft | 420 kts | 222° |
| 2026-05-05 21:33 | 43.83765 | -69.76595 | 33784 ft | 420 kts | 222° |
| 2026-05-05 21:34 | 43.79249 | -69.81771 | 33786 ft | 420 kts | 222° |
| 2026-05-05 21:34 | 43.74757 | -69.86906 | 33788 ft | 422 kts | 222° |
| 2026-05-05 21:35 | 43.70259 | -69.92039 | 33778 ft | 422 kts | 222° |
| 2026-05-05 21:35 | 43.65698 | -69.97230 | 33782 ft | 424 kts | 222° |
| 2026-05-05 21:36 | 43.61157 | -70.02389 | 33778 ft | 424 kts | 222° |
| 2026-05-05 21:36 | 43.56624 | -70.07526 | 33782 ft | 423 kts | 222° |
| 2026-05-05 21:37 | 43.52084 | -70.12667 | 33789 ft | 424 kts | 222° |
| 2026-05-05 21:37 | 43.47525 | -70.17816 | 33790 ft | 423 kts | 223° |
| 2026-05-05 21:38 | 43.42986 | -70.22934 | 33799 ft | 423 kts | 222° |
| 2026-05-05 21:38 | 43.38442 | -70.28044 | 33791 ft | 424 kts | 222° |
| 2026-05-05 21:39 | 43.33888 | -70.33157 | 33799 ft | 424 kts | 223° |
| 2026-05-05 21:39 | 43.29343 | -70.38250 | 33800 ft | 424 kts | 222° |
| 2026-05-05 21:40 | 43.24766 | -70.43368 | 33809 ft | 425 kts | 222° |
| 2026-05-05 21:40 | 43.20205 | -70.48457 | 33796 ft | 424 kts | 223° |
| 2026-05-05 21:41 | 43.15636 | -70.53551 | 33799 ft | 425 kts | 222° |
| 2026-05-05 21:41 | 43.11045 | -70.58648 | 33797 ft | 424 kts | 222° |
| 2026-05-05 21:42 | 43.06479 | -70.63715 | 33798 ft | 424 kts | 222° |
| 2026-05-05 21:42 | 43.01911 | -70.68773 | 33798 ft | 425 kts | 222° |
| 2026-05-05 21:43 | 42.97348 | -70.73817 | 33796 ft | 423 kts | 222° |
| 2026-05-05 21:43 | 42.92778 | -70.78862 | 33802 ft | 424 kts | 222° |
| 2026-05-05 21:44 | 42.88179 | -70.83907 | 33804 ft | 424 kts | 220° |
| 2026-05-05 21:44 | 42.83349 | -70.88471 | 33804 ft | 428 kts | 215° |
| 2026-05-05 21:45 | 42.78111 | -70.92357 | 33815 ft | 431 kts | 209° |
| 2026-05-05 21:45 | 42.72549 | -70.95470 | 33818 ft | 436 kts | 203° |
| 2026-05-05 21:46 | 42.66859 | -70.98207 | 33820 ft | 435 kts | 203° |
| 2026-05-05 21:46 | 42.61166 | -71.00950 | 33818 ft | 435 kts | 203° |
| 2026-05-05 21:47 | 42.55474 | -71.03678 | 33829 ft | 436 kts | 203° |
| 2026-05-05 21:47 | 42.49720 | -71.06434 | 33837 ft | 437 kts | 203° |
| 2026-05-05 21:48 | 42.44033 | -71.09152 | 33841 ft | 438 kts | 204° |
| 2026-05-05 21:48 | 42.38285 | -71.11894 | 33842 ft | 438 kts | 204° |
| 2026-05-05 21:49 | 42.32555 | -71.14626 | 33850 ft | 439 kts | 204° |
| 2026-05-05 21:49 | 42.26806 | -71.17361 | 33851 ft | 440 kts | 203° |
| 2026-05-05 21:50 | 42.21020 | -71.20104 | 33859 ft | 440 kts | 203° |
| 2026-05-05 21:50 | 42.15242 | -71.22839 | 33875 ft | 442 kts | 204° |
| 2026-05-05 21:51 | 42.09468 | -71.25568 | 33884 ft | 442 kts | 203° |
| 2026-05-05 21:51 | 42.03675 | -71.28302 | 33893 ft | 443 kts | 203° |
| 2026-05-05 21:52 | 41.94929 | -71.32417 | 33896 ft | 445 kts | 204° |
| 2026-05-05 21:53 | 41.89093 | -71.35161 | 33899 ft | 445 kts | 204° |
| 2026-05-05 21:53 | 41.83270 | -71.37891 | 33911 ft | 446 kts | 204° |
| 2026-05-05 21:54 | 41.77496 | -71.40841 | 33914 ft | 445 kts | 208° |
| 2026-05-05 21:54 | 41.71995 | -71.44617 | 33916 ft | 441 kts | 215° |
| 2026-05-05 21:55 | 41.66953 | -71.49128 | 33915 ft | 437 kts | 221° |
| 2026-05-05 21:55 | 41.62266 | -71.54250 | 33924 ft | 437 kts | 224° |
| 2026-05-05 21:56 | 41.57611 | -71.59448 | 33927 ft | 438 kts | 225° |
| 2026-05-05 21:56 | 41.52940 | -71.64648 | 33918 ft | 436 kts | 225° |
| 2026-05-05 21:57 | 41.48303 | -71.69804 | 33926 ft | 438 kts | 224° |
| 2026-05-05 21:57 | 41.43628 | -71.74985 | 33927 ft | 438 kts | 224° |
| 2026-05-05 21:58 | 41.38933 | -71.80182 | 33926 ft | 438 kts | 224° |
| 2026-05-05 21:58 | 41.34254 | -71.85354 | 33934 ft | 438 kts | 224° |
| 2026-05-05 21:59 | 41.29576 | -71.90507 | 33908 ft | 437 kts | 224° |
| 2026-05-05 21:59 | 41.27264 | -71.93047 | 33473 ft | 438 kts | 224° |
| 2026-05-05 21:59 | 41.24892 | -71.95657 | 32516 ft | 443 kts | 224° |
| 2026-05-05 21:59 | 41.22512 | -71.98276 | 31380 ft | 450 kts | 224° |
| 2026-05-05 22:00 | 41.20103 | -72.00919 | 30143 ft | 453 kts | 223° |
| 2026-05-05 22:00 | 41.17684 | -72.03572 | 28810 ft | 456 kts | 223° |
| 2026-05-05 22:00 | 41.15248 | -72.06235 | 27524 ft | 457 kts | 223° |
| 2026-05-05 22:00 | 41.12826 | -72.08904 | 26766 ft | 450 kts | 225° |
| 2026-05-05 22:01 | 41.10770 | -72.11901 | 26136 ft | 440 kts | 236° |
| 2026-05-05 22:01 | 41.09230 | -72.15312 | 25602 ft | 430 kts | 246° |
| 2026-05-05 22:01 | 41.08172 | -72.18980 | 25081 ft | 422 kts | 252° |
| 2026-05-05 22:01 | 41.07267 | -72.22594 | 24592 ft | 415 kts | 253° |
| 2026-05-05 22:02 | 41.06374 | -72.26227 | 24121 ft | 408 kts | 253° |
| 2026-05-05 22:02 | 41.05505 | -72.29758 | 23939 ft | 394 kts | 253° |
| 2026-05-05 22:02 | 41.04659 | -72.33185 | 23942 ft | 392 kts | 253° |
| 2026-05-05 22:02 | 41.03815 | -72.36592 | 23772 ft | 389 kts | 253° |
| 2026-05-05 22:03 | 41.02977 | -72.39967 | 22995 ft | 394 kts | 252° |
| 2026-05-05 22:03 | 41.02113 | -72.43432 | 22080 ft | 399 kts | 252° |
| 2026-05-05 22:03 | 41.01247 | -72.46904 | 21403 ft | 398 kts | 252° |
| 2026-05-05 22:03 | 41.00395 | -72.50314 | 20789 ft | 395 kts | 252° |
| 2026-05-05 22:04 | 40.99530 | -72.53766 | 20215 ft | 391 kts | 252° |
| 2026-05-05 22:04 | 40.98679 | -72.57155 | 19694 ft | 387 kts | 252° |
| 2026-05-05 22:04 | 40.97848 | -72.60463 | 19200 ft | 382 kts | 252° |
| 2026-05-05 22:04 | 40.97016 | -72.63773 | 18701 ft | 377 kts | 252° |
| 2026-05-05 22:05 | 40.96189 | -72.67054 | 18199 ft | 373 kts | 251° |
| 2026-05-05 22:05 | 40.95379 | -72.70261 | 17717 ft | 369 kts | 251° |
| 2026-05-05 22:05 | 40.94567 | -72.73472 | 17255 ft | 364 kts | 251° |
| 2026-05-05 22:05 | 40.93752 | -72.76606 | 16803 ft | 359 kts | 249° |
| 2026-05-05 22:06 | 40.92546 | -72.79439 | 16340 ft | 357 kts | 235° |
| 2026-05-05 22:06 | 40.90839 | -72.81831 | 15891 ft | 357 kts | 223° |
| 2026-05-05 22:06 | 40.88880 | -72.83782 | 15465 ft | 353 kts | 219° |
| 2026-05-05 22:06 | 40.86918 | -72.85667 | 15039 ft | 350 kts | 219° |
| 2026-05-05 22:07 | 40.84958 | -72.87543 | 14589 ft | 346 kts | 219° |
| 2026-05-05 22:07 | 40.83004 | -72.89411 | 14134 ft | 344 kts | 220° |
| 2026-05-05 22:07 | 40.81095 | -72.91239 | 13694 ft | 341 kts | 220° |
| 2026-05-05 22:07 | 40.79192 | -72.93063 | 13248 ft | 338 kts | 220° |
| 2026-05-05 22:08 | 40.77309 | -72.94865 | 12807 ft | 335 kts | 220° |
| 2026-05-05 22:08 | 40.75418 | -72.96676 | 12362 ft | 332 kts | 220° |
| 2026-05-05 22:08 | 40.73576 | -72.98435 | 11930 ft | 329 kts | 220° |
| 2026-05-05 22:08 | 40.71720 | -73.00210 | 11496 ft | 325 kts | 220° |
| 2026-05-05 22:09 | 40.70188 | -73.02272 | 11012 ft | 317 kts | 240° |
| 2026-05-05 22:09 | 40.69465 | -73.04958 | 10718 ft | 307 kts | 261° |
| 2026-05-05 22:09 | 40.69545 | -73.07695 | 10556 ft | 298 kts | 279° |
| 2026-05-05 22:09 | 40.70094 | -73.10267 | 10409 ft | 287 kts | 282° |
| 2026-05-05 22:10 | 40.70627 | -73.12735 | 10199 ft | 278 kts | 282° |
| 2026-05-05 22:10 | 40.71149 | -73.15154 | 10068 ft | 266 kts | 282° |
| 2026-05-05 22:10 | 40.71646 | -73.17446 | 9789 ft | 261 kts | 281° |
| 2026-05-05 22:10 | 40.72140 | -73.19737 | 9415 ft | 259 kts | 281° |
| 2026-05-05 22:11 | 40.72625 | -73.22002 | 9051 ft | 258 kts | 281° |
| 2026-05-05 22:11 | 40.73112 | -73.24251 | 8695 ft | 256 kts | 281° |
| 2026-05-05 22:11 | 40.73602 | -73.26508 | 8342 ft | 254 kts | 281° |
| 2026-05-05 22:11 | 40.74085 | -73.28732 | 8020 ft | 251 kts | 281° |
| 2026-05-05 22:12 | 40.74556 | -73.30907 | 7688 ft | 249 kts | 281° |
| 2026-05-05 22:12 | 40.75026 | -73.33080 | 7351 ft | 247 kts | 281° |
| 2026-05-05 22:12 | 40.75494 | -73.35249 | 7016 ft | 245 kts | 281° |
| 2026-05-05 22:12 | 40.75959 | -73.37402 | 6684 ft | 243 kts | 280° |
| 2026-05-05 22:13 | 40.76433 | -73.39535 | 6352 ft | 243 kts | 283° |
| 2026-05-05 22:13 | 40.77074 | -73.41589 | 6027 ft | 245 kts | 290° |
| 2026-05-05 22:13 | 40.77919 | -73.43571 | 5702 ft | 246 kts | 294° |
| 2026-05-05 22:13 | 40.78804 | -73.45490 | 5380 ft | 245 kts | 294° |
| 2026-05-05 22:14 | 40.79688 | -73.47391 | 5050 ft | 244 kts | 294° |
| 2026-05-05 22:14 | 40.80564 | -73.49277 | 4732 ft | 243 kts | 294° |
| 2026-05-05 22:14 | 40.81449 | -73.51187 | 4413 ft | 242 kts | 294° |
| 2026-05-05 22:14 | 40.82081 | -73.53158 | 4048 ft | 231 kts | 272° |
| 2026-05-05 22:15 | 40.81942 | -73.55199 | 3727 ft | 222 kts | 249° |
| 2026-05-05 22:15 | 40.81428 | -73.57095 | 3433 ft | 220 kts | 248° |
| 2026-05-05 22:15 | 40.80914 | -73.59013 | 3131 ft | 219 kts | 248° |
| 2026-05-05 22:15 | 40.80427 | -73.60860 | 2996 ft | 209 kts | 248° |
| 2026-05-05 22:16 | 40.79924 | -73.62633 | 2991 ft | 207 kts | 238° |
| 2026-05-05 22:16 | 40.78959 | -73.64032 | 3008 ft | 206 kts | 219° |
| 2026-05-05 22:16 | 40.77782 | -73.65105 | 2917 ft | 205 kts | 213° |
| 2026-05-05 22:16 | 40.76573 | -73.66076 | 2662 ft | 202 kts | 212° |
| 2026-05-05 22:17 | 40.75383 | -73.67000 | 2397 ft | 196 kts | 212° |
| 2026-05-05 22:17 | 40.74223 | -73.67899 | 2141 ft | 189 kts | 212° |
| 2026-05-05 22:17 | 40.73112 | -73.68767 | 1969 ft | 179 kts | 212° |
| 2026-05-05 22:17 | 40.72105 | -73.69556 | 1757 ft | 164 kts | 212° |
| 2026-05-05 22:18 | 40.71151 | -73.70302 | 1500 ft | 153 kts | 211° |
| 2026-05-05 22:18 | 40.70281 | -73.70984 | 1286 ft | 139 kts | 210° |
| 2026-05-05 22:18 | 40.69488 | -73.71603 | 1131 ft | 129 kts | 211° |
| 2026-05-05 22:18 | 40.68720 | -73.72205 | 951 ft | 127 kts | 211° |
| 2026-05-05 22:19 | 40.67969 | -73.72792 | 793 ft | 126 kts | 210° |
| 2026-05-05 22:19 | 40.67211 | -73.73389 | 630 ft | 125 kts | 210° |
| 2026-05-05 22:19 | 40.66470 | -73.73968 | 491 ft | 125 kts | 209° |
| 2026-05-05 22:19 | 40.65728 | -73.74557 | 333 ft | 125 kts | 209° |
| 2026-05-05 22:20 | 40.64982 | -73.75129 | 156 ft | 123 kts | 208° |
| 2026-05-05 22:20 | 40.64253 | -73.75697 | 19 ft | 118 kts | 212° |
| 2026-05-05 22:20 | 40.63761 | -73.76083 | 16 ft | 50 kts | 210° |
| 2026-05-05 22:20 | 40.63530 | -73.76262 | 16 ft | 33 kts | 210° |
| 2026-05-05 22:21 | 40.63352 | -73.76415 | 16 ft | 28 kts | 221° |
| 2026-05-05 22:21 | 40.63253 | -73.76598 | 14 ft | 22 kts | 248° |
| 2026-05-05 22:21 | 40.63266 | -73.76776 | 12 ft | 19 kts | 299° |
| 2026-05-05 22:21 | 40.63327 | -73.76919 | 12 ft | 16 kts | 298° |
| 2026-05-05 22:22 | 40.63383 | -73.77045 | 13 ft | 14 kts | 302° |
| 2026-05-05 22:22 | 40.63434 | -73.77155 | 14 ft | 13 kts | 301° |
| 2026-05-05 22:22 | 40.63482 | -73.77255 | 15 ft | 12 kts | 301° |
| 2026-05-05 22:22 | 40.63526 | -73.77351 | 16 ft | 12 kts | 301° |
| 2026-05-05 22:23 | 40.63574 | -73.77458 | 16 ft | 13 kts | 298° |
| 2026-05-05 22:23 | 40.63623 | -73.77565 | 16 ft | 13 kts | 303° |
| 2026-05-05 22:23 | 40.63677 | -73.77661 | 16 ft | 12 kts | 292° |
| 2026-05-05 22:23 | 40.63647 | -73.77722 | 16 ft | 4 kts | 228° |
| 2026-05-05 22:24 | 40.63618 | -73.77745 | 16 ft | 5 kts | 207° |
| 2026-05-05 22:24 | 40.63578 | -73.77773 | 15 ft | 7 kts | 209° |
| 2026-05-05 22:24 | 40.63559 | -73.77840 | 14 ft | 9 kts | 270° |
| 2026-05-05 22:24 | 40.63553 | -73.77916 | 14 ft | 7 kts | 263° |
| 2026-05-05 22:25 | 40.63547 | -73.77981 | 13 ft | 4 kts | 263° |
| 2026-05-05 22:25 | 40.63546 | -73.77990 | 13 ft | 0 kts | 262° |
| 2026-05-05 22:25 | 40.63546 | -73.77993 | 13 ft | 0 kts | 263° |
| 2026-05-05 22:25 | 40.63546 | -73.77994 | 13 ft | 0 kts | 263° |